<?xml version="1.0" encoding="UTF-8" standalone="no" ?>
<gpx xmlns="http://www.topografix.com/GPX/1/1" xmlns:xsi="http://www.w3.org/2001/XMLSchema-instance" xsi:schemaLocation="http://www.topografix.com/GPX/1/1 http://www.topografix.com/GPX/1/1/gpx.xsd" version="1.1" creator="VisuGPX - https://www.visugpx.com">
  <metadata>
    <name>Rumeter</name>
    <desc><![CDATA[Runmeter Marche 10 mai 2016 09:26:10]]></desc>
  </metadata>
  <trk>
    <name><![CDATA[St. Jacques - 10/5/16 - étape 10]]></name>
    <trkseg>
      <trkpt lat="47.75855" lon="5.10273">
        <ele>408.2</ele>
        <time>2016-05-10T07:26:10Z</time>
      </trkpt>
      <trkpt lat="47.75856" lon="5.10272">
        <ele>408.1</ele>
        <time>2016-05-10T07:26:10Z</time>
      </trkpt>
      <trkpt lat="47.75865" lon="5.10256">
        <ele>391.3</ele>
        <time>2016-05-10T07:26:39Z</time>
      </trkpt>
      <trkpt lat="47.75876" lon="5.10243">
        <ele>390.6</ele>
        <time>2016-05-10T07:26:55Z</time>
      </trkpt>
      <trkpt lat="47.75888" lon="5.10233">
        <ele>389.9</ele>
        <time>2016-05-10T07:27:12Z</time>
      </trkpt>
      <trkpt lat="47.75899" lon="5.10223">
        <ele>389.3</ele>
        <time>2016-05-10T07:27:25Z</time>
      </trkpt>
      <trkpt lat="47.75911" lon="5.1021">
        <ele>388.4</ele>
        <time>2016-05-10T07:27:40Z</time>
      </trkpt>
      <trkpt lat="47.75922" lon="5.10197">
        <ele>387.2</ele>
        <time>2016-05-10T07:28:01Z</time>
      </trkpt>
      <trkpt lat="47.75933" lon="5.10183">
        <ele>386.3</ele>
        <time>2016-05-10T07:28:17Z</time>
      </trkpt>
      <trkpt lat="47.75944" lon="5.1017">
        <ele>386.2</ele>
        <time>2016-05-10T07:28:31Z</time>
      </trkpt>
      <trkpt lat="47.75955" lon="5.10157">
        <ele>386.1</ele>
        <time>2016-05-10T07:28:45Z</time>
      </trkpt>
      <trkpt lat="47.75967" lon="5.10145">
        <ele>386</ele>
        <time>2016-05-10T07:28:59Z</time>
      </trkpt>
      <trkpt lat="47.75978" lon="5.10133">
        <ele>385.9</ele>
        <time>2016-05-10T07:29:14Z</time>
      </trkpt>
      <trkpt lat="47.7599" lon="5.10121">
        <ele>385.8</ele>
        <time>2016-05-10T07:29:29Z</time>
      </trkpt>
      <trkpt lat="47.76002" lon="5.10111">
        <ele>385.7</ele>
        <time>2016-05-10T07:29:42Z</time>
      </trkpt>
      <trkpt lat="47.76014" lon="5.101">
        <ele>385.6</ele>
        <time>2016-05-10T07:29:55Z</time>
      </trkpt>
      <trkpt lat="47.76026" lon="5.10091">
        <ele>385.5</ele>
        <time>2016-05-10T07:30:09Z</time>
      </trkpt>
      <trkpt lat="47.76039" lon="5.10083">
        <ele>385.4</ele>
        <time>2016-05-10T07:30:24Z</time>
      </trkpt>
      <trkpt lat="47.76052" lon="5.10076">
        <ele>385.2</ele>
        <time>2016-05-10T07:30:39Z</time>
      </trkpt>
      <trkpt lat="47.76065" lon="5.1007">
        <ele>385.1</ele>
        <time>2016-05-10T07:30:53Z</time>
      </trkpt>
      <trkpt lat="47.76078" lon="5.10064">
        <ele>385</ele>
        <time>2016-05-10T07:31:08Z</time>
      </trkpt>
      <trkpt lat="47.76093" lon="5.10061">
        <ele>384.9</ele>
        <time>2016-05-10T07:31:24Z</time>
      </trkpt>
      <trkpt lat="47.76108" lon="5.10058">
        <ele>384.8</ele>
        <time>2016-05-10T07:31:40Z</time>
      </trkpt>
      <trkpt lat="47.76122" lon="5.10057">
        <ele>384.7</ele>
        <time>2016-05-10T07:31:53Z</time>
      </trkpt>
      <trkpt lat="47.76135" lon="5.10056">
        <ele>384.6</ele>
        <time>2016-05-10T07:32:09Z</time>
      </trkpt>
      <trkpt lat="47.76149" lon="5.10056">
        <ele>384.5</ele>
        <time>2016-05-10T07:32:24Z</time>
      </trkpt>
      <trkpt lat="47.76163" lon="5.10056">
        <ele>384.3</ele>
        <time>2016-05-10T07:32:41Z</time>
      </trkpt>
      <trkpt lat="47.76178" lon="5.10053">
        <ele>384.2</ele>
        <time>2016-05-10T07:32:56Z</time>
      </trkpt>
      <trkpt lat="47.76193" lon="5.10051">
        <ele>384.1</ele>
        <time>2016-05-10T07:33:12Z</time>
      </trkpt>
      <trkpt lat="47.76206" lon="5.1005">
        <ele>384</ele>
        <time>2016-05-10T07:33:25Z</time>
      </trkpt>
      <trkpt lat="47.7622" lon="5.10053">
        <ele>383.9</ele>
        <time>2016-05-10T07:33:40Z</time>
      </trkpt>
      <trkpt lat="47.76235" lon="5.1005">
        <ele>383.8</ele>
        <time>2016-05-10T07:33:52Z</time>
      </trkpt>
      <trkpt lat="47.76249" lon="5.10047">
        <ele>383.7</ele>
        <time>2016-05-10T07:34:06Z</time>
      </trkpt>
      <trkpt lat="47.76261" lon="5.10037">
        <ele>383.6</ele>
        <time>2016-05-10T07:34:24Z</time>
      </trkpt>
      <trkpt lat="47.7627" lon="5.10022">
        <ele>383.4</ele>
        <time>2016-05-10T07:34:39Z</time>
      </trkpt>
      <trkpt lat="47.76273" lon="5.10002">
        <ele>383.3</ele>
        <time>2016-05-10T07:34:53Z</time>
      </trkpt>
      <trkpt lat="47.76272" lon="5.09982">
        <ele>383.2</ele>
        <time>2016-05-10T07:35:06Z</time>
      </trkpt>
      <trkpt lat="47.76267" lon="5.09963">
        <ele>383.2</ele>
        <time>2016-05-10T07:35:19Z</time>
      </trkpt>
      <trkpt lat="47.76265" lon="5.09943">
        <ele>383.2</ele>
        <time>2016-05-10T07:35:31Z</time>
      </trkpt>
      <trkpt lat="47.76264" lon="5.09923">
        <ele>383.5</ele>
        <time>2016-05-10T07:35:46Z</time>
      </trkpt>
      <trkpt lat="47.76263" lon="5.09902">
        <ele>383.8</ele>
        <time>2016-05-10T07:35:59Z</time>
      </trkpt>
      <trkpt lat="47.76264" lon="5.09881">
        <ele>384</ele>
        <time>2016-05-10T07:36:13Z</time>
      </trkpt>
      <trkpt lat="47.76264" lon="5.09861">
        <ele>384.2</ele>
        <time>2016-05-10T07:36:26Z</time>
      </trkpt>
      <trkpt lat="47.76263" lon="5.0984">
        <ele>384.5</ele>
        <time>2016-05-10T07:36:42Z</time>
      </trkpt>
      <trkpt lat="47.76265" lon="5.09819">
        <ele>384.8</ele>
        <time>2016-05-10T07:36:56Z</time>
      </trkpt>
      <trkpt lat="47.76265" lon="5.09797">
        <ele>385.1</ele>
        <time>2016-05-10T07:37:12Z</time>
      </trkpt>
      <trkpt lat="47.7627" lon="5.09779">
        <ele>385.4</ele>
        <time>2016-05-10T07:37:26Z</time>
      </trkpt>
      <trkpt lat="47.76273" lon="5.09757">
        <ele>385.6</ele>
        <time>2016-05-10T07:37:41Z</time>
      </trkpt>
      <trkpt lat="47.76275" lon="5.09737">
        <ele>385.9</ele>
        <time>2016-05-10T07:37:54Z</time>
      </trkpt>
      <trkpt lat="47.76278" lon="5.09717">
        <ele>386.1</ele>
        <time>2016-05-10T07:38:08Z</time>
      </trkpt>
      <trkpt lat="47.76278" lon="5.09696">
        <ele>386.7</ele>
        <time>2016-05-10T07:38:25Z</time>
      </trkpt>
      <trkpt lat="47.76284" lon="5.09677">
        <ele>387.2</ele>
        <time>2016-05-10T07:38:40Z</time>
      </trkpt>
      <trkpt lat="47.7629" lon="5.09658">
        <ele>387.7</ele>
        <time>2016-05-10T07:38:54Z</time>
      </trkpt>
      <trkpt lat="47.76291" lon="5.09637">
        <ele>388.2</ele>
        <time>2016-05-10T07:39:09Z</time>
      </trkpt>
      <trkpt lat="47.76298" lon="5.09618">
        <ele>388.6</ele>
        <time>2016-05-10T07:39:23Z</time>
      </trkpt>
      <trkpt lat="47.76305" lon="5.096">
        <ele>389.1</ele>
        <time>2016-05-10T07:39:37Z</time>
      </trkpt>
      <trkpt lat="47.7631" lon="5.09581">
        <ele>389.3</ele>
        <time>2016-05-10T07:39:53Z</time>
      </trkpt>
      <trkpt lat="47.76317" lon="5.09562">
        <ele>389.2</ele>
        <time>2016-05-10T07:40:08Z</time>
      </trkpt>
      <trkpt lat="47.76326" lon="5.09547">
        <ele>389.2</ele>
        <time>2016-05-10T07:40:21Z</time>
      </trkpt>
      <trkpt lat="47.76335" lon="5.09531">
        <ele>389.1</ele>
        <time>2016-05-10T07:40:34Z</time>
      </trkpt>
      <trkpt lat="47.7634" lon="5.09512">
        <ele>389</ele>
        <time>2016-05-10T07:40:49Z</time>
      </trkpt>
      <trkpt lat="47.76346" lon="5.09493">
        <ele>388.9</ele>
        <time>2016-05-10T07:41:06Z</time>
      </trkpt>
      <trkpt lat="47.76354" lon="5.09475">
        <ele>388.8</ele>
        <time>2016-05-10T07:41:20Z</time>
      </trkpt>
      <trkpt lat="47.76358" lon="5.09456">
        <ele>388.8</ele>
        <time>2016-05-10T07:41:36Z</time>
      </trkpt>
      <trkpt lat="47.76365" lon="5.09436">
        <ele>388.7</ele>
        <time>2016-05-10T07:41:52Z</time>
      </trkpt>
      <trkpt lat="47.76374" lon="5.09419">
        <ele>388.6</ele>
        <time>2016-05-10T07:42:07Z</time>
      </trkpt>
      <trkpt lat="47.76381" lon="5.094">
        <ele>388.5</ele>
        <time>2016-05-10T07:42:20Z</time>
      </trkpt>
      <trkpt lat="47.76389" lon="5.09383">
        <ele>388.5</ele>
        <time>2016-05-10T07:42:33Z</time>
      </trkpt>
      <trkpt lat="47.76397" lon="5.09365">
        <ele>388.4</ele>
        <time>2016-05-10T07:42:48Z</time>
      </trkpt>
      <trkpt lat="47.76408" lon="5.09351">
        <ele>388.3</ele>
        <time>2016-05-10T07:43:03Z</time>
      </trkpt>
      <trkpt lat="47.76415" lon="5.09334">
        <ele>388.2</ele>
        <time>2016-05-10T07:43:17Z</time>
      </trkpt>
      <trkpt lat="47.76425" lon="5.0932">
        <ele>388.2</ele>
        <time>2016-05-10T07:43:31Z</time>
      </trkpt>
      <trkpt lat="47.76433" lon="5.09304">
        <ele>388.1</ele>
        <time>2016-05-10T07:43:52Z</time>
      </trkpt>
      <trkpt lat="47.76444" lon="5.09292">
        <ele>388</ele>
        <time>2016-05-10T07:44:05Z</time>
      </trkpt>
      <trkpt lat="47.76456" lon="5.09278">
        <ele>387.9</ele>
        <time>2016-05-10T07:44:20Z</time>
      </trkpt>
      <trkpt lat="47.76468" lon="5.09269">
        <ele>387.8</ele>
        <time>2016-05-10T07:44:37Z</time>
      </trkpt>
      <trkpt lat="47.7648" lon="5.09255">
        <ele>387.7</ele>
        <time>2016-05-10T07:44:52Z</time>
      </trkpt>
      <trkpt lat="47.76492" lon="5.09246">
        <ele>387.7</ele>
        <time>2016-05-10T07:45:07Z</time>
      </trkpt>
      <trkpt lat="47.76505" lon="5.09235">
        <ele>387.6</ele>
        <time>2016-05-10T07:45:22Z</time>
      </trkpt>
      <trkpt lat="47.7652" lon="5.09222">
        <ele>387.5</ele>
        <time>2016-05-10T07:45:34Z</time>
      </trkpt>
      <trkpt lat="47.76534" lon="5.09216">
        <ele>387.4</ele>
        <time>2016-05-10T07:45:52Z</time>
      </trkpt>
      <trkpt lat="47.76547" lon="5.09209">
        <ele>387.4</ele>
        <time>2016-05-10T07:46:05Z</time>
      </trkpt>
      <trkpt lat="47.76561" lon="5.09201">
        <ele>387.3</ele>
        <time>2016-05-10T07:46:18Z</time>
      </trkpt>
      <trkpt lat="47.76573" lon="5.09194">
        <ele>387.2</ele>
        <time>2016-05-10T07:46:37Z</time>
      </trkpt>
      <trkpt lat="47.76586" lon="5.09185">
        <ele>387.1</ele>
        <time>2016-05-10T07:46:54Z</time>
      </trkpt>
      <trkpt lat="47.76599" lon="5.09178">
        <ele>387</ele>
        <time>2016-05-10T07:47:08Z</time>
      </trkpt>
      <trkpt lat="47.76612" lon="5.09172">
        <ele>387</ele>
        <time>2016-05-10T07:47:21Z</time>
      </trkpt>
      <trkpt lat="47.76626" lon="5.09168">
        <ele>386.9</ele>
        <time>2016-05-10T07:47:38Z</time>
      </trkpt>
      <trkpt lat="47.76641" lon="5.09166">
        <ele>386.8</ele>
        <time>2016-05-10T07:47:55Z</time>
      </trkpt>
      <trkpt lat="47.76655" lon="5.09165">
        <ele>386.7</ele>
        <time>2016-05-10T07:48:09Z</time>
      </trkpt>
      <trkpt lat="47.76669" lon="5.09161">
        <ele>386.6</ele>
        <time>2016-05-10T07:48:25Z</time>
      </trkpt>
      <trkpt lat="47.76682" lon="5.09157">
        <ele>386.6</ele>
        <time>2016-05-10T07:48:42Z</time>
      </trkpt>
      <trkpt lat="47.76697" lon="5.09155">
        <ele>386.5</ele>
        <time>2016-05-10T07:48:54Z</time>
      </trkpt>
      <trkpt lat="47.76711" lon="5.09152">
        <ele>386.4</ele>
        <time>2016-05-10T07:49:08Z</time>
      </trkpt>
      <trkpt lat="47.76709" lon="5.09135">
        <ele>386.3</ele>
        <time>2016-05-10T07:49:33Z</time>
      </trkpt>
      <trkpt lat="47.76696" lon="5.09131">
        <ele>386.2</ele>
        <time>2016-05-10T07:49:47Z</time>
      </trkpt>
      <trkpt lat="47.76682" lon="5.09126">
        <ele>385.9</ele>
        <time>2016-05-10T07:50:02Z</time>
      </trkpt>
      <trkpt lat="47.76668" lon="5.09121">
        <ele>385.2</ele>
        <time>2016-05-10T07:50:15Z</time>
      </trkpt>
      <trkpt lat="47.76655" lon="5.09116">
        <ele>384.5</ele>
        <time>2016-05-10T07:50:30Z</time>
      </trkpt>
      <trkpt lat="47.76641" lon="5.09112">
        <ele>383.7</ele>
        <time>2016-05-10T07:50:44Z</time>
      </trkpt>
      <trkpt lat="47.76627" lon="5.09106">
        <ele>382.9</ele>
        <time>2016-05-10T07:51:00Z</time>
      </trkpt>
      <trkpt lat="47.76614" lon="5.09101">
        <ele>382.3</ele>
        <time>2016-05-10T07:51:12Z</time>
      </trkpt>
      <trkpt lat="47.76599" lon="5.091">
        <ele>381.6</ele>
        <time>2016-05-10T07:51:25Z</time>
      </trkpt>
      <trkpt lat="47.76586" lon="5.09089">
        <ele>380.8</ele>
        <time>2016-05-10T07:51:39Z</time>
      </trkpt>
      <trkpt lat="47.76573" lon="5.09088">
        <ele>379.9</ele>
        <time>2016-05-10T07:51:56Z</time>
      </trkpt>
      <trkpt lat="47.76558" lon="5.09082">
        <ele>379.4</ele>
        <time>2016-05-10T07:52:10Z</time>
      </trkpt>
      <trkpt lat="47.76545" lon="5.09074">
        <ele>378.9</ele>
        <time>2016-05-10T07:52:23Z</time>
      </trkpt>
      <trkpt lat="47.76531" lon="5.0907">
        <ele>378.4</ele>
        <time>2016-05-10T07:52:36Z</time>
      </trkpt>
      <trkpt lat="47.76518" lon="5.09065">
        <ele>377.9</ele>
        <time>2016-05-10T07:52:49Z</time>
      </trkpt>
      <trkpt lat="47.76505" lon="5.09058">
        <ele>377.4</ele>
        <time>2016-05-10T07:53:02Z</time>
      </trkpt>
      <trkpt lat="47.76491" lon="5.09055">
        <ele>376.8</ele>
        <time>2016-05-10T07:53:16Z</time>
      </trkpt>
      <trkpt lat="47.76478" lon="5.09054">
        <ele>376</ele>
        <time>2016-05-10T07:53:34Z</time>
      </trkpt>
      <trkpt lat="47.76464" lon="5.09052">
        <ele>375.4</ele>
        <time>2016-05-10T07:53:46Z</time>
      </trkpt>
      <trkpt lat="47.7645" lon="5.09052">
        <ele>374.6</ele>
        <time>2016-05-10T07:54:01Z</time>
      </trkpt>
      <trkpt lat="47.76435" lon="5.09053">
        <ele>374</ele>
        <time>2016-05-10T07:54:12Z</time>
      </trkpt>
      <trkpt lat="47.76421" lon="5.09058">
        <ele>373.2</ele>
        <time>2016-05-10T07:54:26Z</time>
      </trkpt>
      <trkpt lat="47.76408" lon="5.09066">
        <ele>372.5</ele>
        <time>2016-05-10T07:54:41Z</time>
      </trkpt>
      <trkpt lat="47.76397" lon="5.09079">
        <ele>371.8</ele>
        <time>2016-05-10T07:54:54Z</time>
      </trkpt>
      <trkpt lat="47.76386" lon="5.09083">
        <ele>371.2</ele>
        <time>2016-05-10T07:55:07Z</time>
      </trkpt>
      <trkpt lat="47.76374" lon="5.09094">
        <ele>370</ele>
        <time>2016-05-10T07:55:30Z</time>
      </trkpt>
      <trkpt lat="47.76362" lon="5.09104">
        <ele>368.8</ele>
        <time>2016-05-10T07:55:46Z</time>
      </trkpt>
      <trkpt lat="47.76351" lon="5.09118">
        <ele>367.5</ele>
        <time>2016-05-10T07:56:03Z</time>
      </trkpt>
      <trkpt lat="47.76339" lon="5.0913">
        <ele>366.3</ele>
        <time>2016-05-10T07:56:19Z</time>
      </trkpt>
      <trkpt lat="47.76329" lon="5.09145">
        <ele>365.5</ele>
        <time>2016-05-10T07:56:34Z</time>
      </trkpt>
      <trkpt lat="47.7632" lon="5.0916">
        <ele>364.7</ele>
        <time>2016-05-10T07:56:49Z</time>
      </trkpt>
      <trkpt lat="47.76311" lon="5.09176">
        <ele>364.1</ele>
        <time>2016-05-10T07:57:02Z</time>
      </trkpt>
      <trkpt lat="47.76302" lon="5.09192">
        <ele>363.5</ele>
        <time>2016-05-10T07:57:15Z</time>
      </trkpt>
      <trkpt lat="47.763" lon="5.09212">
        <ele>362.8</ele>
        <time>2016-05-10T07:57:28Z</time>
      </trkpt>
      <trkpt lat="47.7629" lon="5.09226">
        <ele>362.1</ele>
        <time>2016-05-10T07:57:42Z</time>
      </trkpt>
      <trkpt lat="47.76286" lon="5.09245">
        <ele>361.5</ele>
        <time>2016-05-10T07:57:56Z</time>
      </trkpt>
      <trkpt lat="47.76277" lon="5.09262">
        <ele>360.7</ele>
        <time>2016-05-10T07:58:11Z</time>
      </trkpt>
      <trkpt lat="47.76268" lon="5.09279">
        <ele>359.9</ele>
        <time>2016-05-10T07:58:30Z</time>
      </trkpt>
      <trkpt lat="47.76256" lon="5.09291">
        <ele>360.1</ele>
        <time>2016-05-10T07:58:43Z</time>
      </trkpt>
      <trkpt lat="47.76243" lon="5.09294">
        <ele>360.4</ele>
        <time>2016-05-10T07:58:56Z</time>
      </trkpt>
      <trkpt lat="47.76229" lon="5.09291">
        <ele>360.6</ele>
        <time>2016-05-10T07:59:10Z</time>
      </trkpt>
      <trkpt lat="47.76214" lon="5.09292">
        <ele>360.9</ele>
        <time>2016-05-10T07:59:23Z</time>
      </trkpt>
      <trkpt lat="47.76202" lon="5.09298">
        <ele>361.2</ele>
        <time>2016-05-10T07:59:40Z</time>
      </trkpt>
      <trkpt lat="47.76188" lon="5.09302">
        <ele>361.5</ele>
        <time>2016-05-10T07:59:58Z</time>
      </trkpt>
      <trkpt lat="47.76174" lon="5.09303">
        <ele>361.7</ele>
        <time>2016-05-10T08:00:09Z</time>
      </trkpt>
      <trkpt lat="47.7616" lon="5.09301">
        <ele>362</ele>
        <time>2016-05-10T08:00:22Z</time>
      </trkpt>
      <trkpt lat="47.76146" lon="5.09301">
        <ele>362.2</ele>
        <time>2016-05-10T08:00:36Z</time>
      </trkpt>
      <trkpt lat="47.76132" lon="5.09297">
        <ele>362.5</ele>
        <time>2016-05-10T08:00:48Z</time>
      </trkpt>
      <trkpt lat="47.76118" lon="5.09293">
        <ele>362.7</ele>
        <time>2016-05-10T08:01:03Z</time>
      </trkpt>
      <trkpt lat="47.76105" lon="5.09288">
        <ele>363.2</ele>
        <time>2016-05-10T08:01:19Z</time>
      </trkpt>
      <trkpt lat="47.76093" lon="5.09277">
        <ele>364.2</ele>
        <time>2016-05-10T08:01:37Z</time>
      </trkpt>
      <trkpt lat="47.76085" lon="5.0927">
        <ele>364.7</ele>
        <time>2016-05-10T08:01:45Z</time>
      </trkpt>
      <trkpt lat="47.76078" lon="5.09251">
        <ele>365.6</ele>
        <time>2016-05-10T08:02:00Z</time>
      </trkpt>
      <trkpt lat="47.7607" lon="5.09236">
        <ele>366.3</ele>
        <time>2016-05-10T08:02:13Z</time>
      </trkpt>
      <trkpt lat="47.76061" lon="5.0922">
        <ele>366.9</ele>
        <time>2016-05-10T08:02:28Z</time>
      </trkpt>
      <trkpt lat="47.76051" lon="5.09205">
        <ele>367.4</ele>
        <time>2016-05-10T08:02:46Z</time>
      </trkpt>
      <trkpt lat="47.76044" lon="5.09188">
        <ele>367.9</ele>
        <time>2016-05-10T08:03:03Z</time>
      </trkpt>
      <trkpt lat="47.76038" lon="5.09168">
        <ele>368.3</ele>
        <time>2016-05-10T08:03:18Z</time>
      </trkpt>
      <trkpt lat="47.76032" lon="5.09149">
        <ele>368.7</ele>
        <time>2016-05-10T08:03:30Z</time>
      </trkpt>
      <trkpt lat="47.76024" lon="5.09133">
        <ele>369.1</ele>
        <time>2016-05-10T08:03:46Z</time>
      </trkpt>
      <trkpt lat="47.76015" lon="5.09115">
        <ele>369.6</ele>
        <time>2016-05-10T08:04:01Z</time>
      </trkpt>
      <trkpt lat="47.76012" lon="5.09095">
        <ele>369.8</ele>
        <time>2016-05-10T08:04:15Z</time>
      </trkpt>
      <trkpt lat="47.76005" lon="5.09077">
        <ele>370.1</ele>
        <time>2016-05-10T08:04:30Z</time>
      </trkpt>
      <trkpt lat="47.75995" lon="5.09061">
        <ele>370.4</ele>
        <time>2016-05-10T08:04:45Z</time>
      </trkpt>
      <trkpt lat="47.7599" lon="5.0905">
        <ele>370.6</ele>
        <time>2016-05-10T08:04:57Z</time>
      </trkpt>
      <trkpt lat="47.75994" lon="5.09059">
        <ele>371.7</ele>
        <time>2016-05-10T08:05:58Z</time>
      </trkpt>
      <trkpt lat="47.75992" lon="5.0906">
        <ele>372</ele>
        <time>2016-05-10T08:06:17Z</time>
      </trkpt>
      <trkpt lat="47.75987" lon="5.0904">
        <ele>372.3</ele>
        <time>2016-05-10T08:06:34Z</time>
      </trkpt>
      <trkpt lat="47.7598" lon="5.09022">
        <ele>372.5</ele>
        <time>2016-05-10T08:06:45Z</time>
      </trkpt>
      <trkpt lat="47.75971" lon="5.09006">
        <ele>372.7</ele>
        <time>2016-05-10T08:07:00Z</time>
      </trkpt>
      <trkpt lat="47.75962" lon="5.08988">
        <ele>373.1</ele>
        <time>2016-05-10T08:07:17Z</time>
      </trkpt>
      <trkpt lat="47.75956" lon="5.08969">
        <ele>373.4</ele>
        <time>2016-05-10T08:07:32Z</time>
      </trkpt>
      <trkpt lat="47.75946" lon="5.08954">
        <ele>373.7</ele>
        <time>2016-05-10T08:07:43Z</time>
      </trkpt>
      <trkpt lat="47.75938" lon="5.08938">
        <ele>374.2</ele>
        <time>2016-05-10T08:07:58Z</time>
      </trkpt>
      <trkpt lat="47.75927" lon="5.08923">
        <ele>375.1</ele>
        <time>2016-05-10T08:08:29Z</time>
      </trkpt>
      <trkpt lat="47.75916" lon="5.08908">
        <ele>375.6</ele>
        <time>2016-05-10T08:08:46Z</time>
      </trkpt>
      <trkpt lat="47.75906" lon="5.08893">
        <ele>375.9</ele>
        <time>2016-05-10T08:08:58Z</time>
      </trkpt>
      <trkpt lat="47.75895" lon="5.08882">
        <ele>376.2</ele>
        <time>2016-05-10T08:09:08Z</time>
      </trkpt>
      <trkpt lat="47.75882" lon="5.08874">
        <ele>376.7</ele>
        <time>2016-05-10T08:09:25Z</time>
      </trkpt>
      <trkpt lat="47.75871" lon="5.08863">
        <ele>377.1</ele>
        <time>2016-05-10T08:09:39Z</time>
      </trkpt>
      <trkpt lat="47.7586" lon="5.0885">
        <ele>377.5</ele>
        <time>2016-05-10T08:09:53Z</time>
      </trkpt>
      <trkpt lat="47.75848" lon="5.0884">
        <ele>377.8</ele>
        <time>2016-05-10T08:10:07Z</time>
      </trkpt>
      <trkpt lat="47.7584" lon="5.08822">
        <ele>378.2</ele>
        <time>2016-05-10T08:10:23Z</time>
      </trkpt>
      <trkpt lat="47.75827" lon="5.08816">
        <ele>378.5</ele>
        <time>2016-05-10T08:10:39Z</time>
      </trkpt>
      <trkpt lat="47.75815" lon="5.08802">
        <ele>378.9</ele>
        <time>2016-05-10T08:10:56Z</time>
      </trkpt>
      <trkpt lat="47.75804" lon="5.0879">
        <ele>379.3</ele>
        <time>2016-05-10T08:11:12Z</time>
      </trkpt>
      <trkpt lat="47.75795" lon="5.08773">
        <ele>379.7</ele>
        <time>2016-05-10T08:11:27Z</time>
      </trkpt>
      <trkpt lat="47.75784" lon="5.08761">
        <ele>379.9</ele>
        <time>2016-05-10T08:11:40Z</time>
      </trkpt>
      <trkpt lat="47.75771" lon="5.08749">
        <ele>380.3</ele>
        <time>2016-05-10T08:11:55Z</time>
      </trkpt>
      <trkpt lat="47.75759" lon="5.08733">
        <ele>380.6</ele>
        <time>2016-05-10T08:12:09Z</time>
      </trkpt>
      <trkpt lat="47.75747" lon="5.08722">
        <ele>381.1</ele>
        <time>2016-05-10T08:12:30Z</time>
      </trkpt>
      <trkpt lat="47.75735" lon="5.08709">
        <ele>381.4</ele>
        <time>2016-05-10T08:12:48Z</time>
      </trkpt>
      <trkpt lat="47.75725" lon="5.08695">
        <ele>381.8</ele>
        <time>2016-05-10T08:13:04Z</time>
      </trkpt>
      <trkpt lat="47.75713" lon="5.08683">
        <ele>382.1</ele>
        <time>2016-05-10T08:13:20Z</time>
      </trkpt>
      <trkpt lat="47.75703" lon="5.08667">
        <ele>382.5</ele>
        <time>2016-05-10T08:13:36Z</time>
      </trkpt>
      <trkpt lat="47.75691" lon="5.08655">
        <ele>382.7</ele>
        <time>2016-05-10T08:13:50Z</time>
      </trkpt>
      <trkpt lat="47.75684" lon="5.08638">
        <ele>383</ele>
        <time>2016-05-10T08:14:02Z</time>
      </trkpt>
      <trkpt lat="47.75678" lon="5.08619">
        <ele>383.3</ele>
        <time>2016-05-10T08:14:15Z</time>
      </trkpt>
      <trkpt lat="47.75669" lon="5.08603">
        <ele>383.6</ele>
        <time>2016-05-10T08:14:30Z</time>
      </trkpt>
      <trkpt lat="47.75662" lon="5.08586">
        <ele>384.2</ele>
        <time>2016-05-10T08:14:48Z</time>
      </trkpt>
      <trkpt lat="47.75657" lon="5.08566">
        <ele>384.9</ele>
        <time>2016-05-10T08:15:02Z</time>
      </trkpt>
      <trkpt lat="47.75649" lon="5.08549">
        <ele>385.6</ele>
        <time>2016-05-10T08:15:15Z</time>
      </trkpt>
      <trkpt lat="47.75643" lon="5.0853">
        <ele>386.4</ele>
        <time>2016-05-10T08:15:30Z</time>
      </trkpt>
      <trkpt lat="47.7564" lon="5.08509">
        <ele>387.2</ele>
        <time>2016-05-10T08:15:46Z</time>
      </trkpt>
      <trkpt lat="47.75634" lon="5.08491">
        <ele>387.2</ele>
        <time>2016-05-10T08:15:59Z</time>
      </trkpt>
      <trkpt lat="47.7563" lon="5.08471">
        <ele>387.1</ele>
        <time>2016-05-10T08:16:15Z</time>
      </trkpt>
      <trkpt lat="47.75625" lon="5.08452">
        <ele>387</ele>
        <time>2016-05-10T08:16:30Z</time>
      </trkpt>
      <trkpt lat="47.75619" lon="5.08433">
        <ele>387</ele>
        <time>2016-05-10T08:16:45Z</time>
      </trkpt>
      <trkpt lat="47.75615" lon="5.08417">
        <ele>386.8</ele>
        <time>2016-05-10T08:17:31Z</time>
      </trkpt>
      <trkpt lat="47.75621" lon="5.08415">
        <ele>386.7</ele>
        <time>2016-05-10T08:17:42Z</time>
      </trkpt>
      <trkpt lat="47.75614" lon="5.08396">
        <ele>386.4</ele>
        <time>2016-05-10T08:18:51Z</time>
      </trkpt>
      <trkpt lat="47.75612" lon="5.08375">
        <ele>386.4</ele>
        <time>2016-05-10T08:19:06Z</time>
      </trkpt>
      <trkpt lat="47.75613" lon="5.08355">
        <ele>386.3</ele>
        <time>2016-05-10T08:19:20Z</time>
      </trkpt>
      <trkpt lat="47.75611" lon="5.08334">
        <ele>386.2</ele>
        <time>2016-05-10T08:19:34Z</time>
      </trkpt>
      <trkpt lat="47.75607" lon="5.08313">
        <ele>386.2</ele>
        <time>2016-05-10T08:19:47Z</time>
      </trkpt>
      <trkpt lat="47.75606" lon="5.08293">
        <ele>386.1</ele>
        <time>2016-05-10T08:20:01Z</time>
      </trkpt>
      <trkpt lat="47.75608" lon="5.0828">
        <ele>386.1</ele>
        <time>2016-05-10T08:20:09Z</time>
      </trkpt>
      <trkpt lat="47.75598" lon="5.08265">
        <ele>386</ele>
        <time>2016-05-10T08:20:24Z</time>
      </trkpt>
      <trkpt lat="47.75592" lon="5.08246">
        <ele>386</ele>
        <time>2016-05-10T08:20:38Z</time>
      </trkpt>
      <trkpt lat="47.75593" lon="5.08226">
        <ele>385.9</ele>
        <time>2016-05-10T08:20:51Z</time>
      </trkpt>
      <trkpt lat="47.75592" lon="5.08205">
        <ele>385.9</ele>
        <time>2016-05-10T08:21:03Z</time>
      </trkpt>
      <trkpt lat="47.75586" lon="5.08186">
        <ele>385.8</ele>
        <time>2016-05-10T08:21:18Z</time>
      </trkpt>
      <trkpt lat="47.75577" lon="5.0817">
        <ele>385.7</ele>
        <time>2016-05-10T08:21:30Z</time>
      </trkpt>
      <trkpt lat="47.75566" lon="5.08157">
        <ele>385.7</ele>
        <time>2016-05-10T08:21:45Z</time>
      </trkpt>
      <trkpt lat="47.75553" lon="5.08149">
        <ele>385.6</ele>
        <time>2016-05-10T08:22:00Z</time>
      </trkpt>
      <trkpt lat="47.7554" lon="5.08139">
        <ele>385.5</ele>
        <time>2016-05-10T08:22:14Z</time>
      </trkpt>
      <trkpt lat="47.75526" lon="5.08135">
        <ele>385.5</ele>
        <time>2016-05-10T08:22:29Z</time>
      </trkpt>
      <trkpt lat="47.75513" lon="5.08132">
        <ele>385.4</ele>
        <time>2016-05-10T08:22:44Z</time>
      </trkpt>
      <trkpt lat="47.75494" lon="5.08128">
        <ele>385.4</ele>
        <time>2016-05-10T08:22:58Z</time>
      </trkpt>
      <trkpt lat="47.75482" lon="5.08118">
        <ele>385.3</ele>
        <time>2016-05-10T08:23:15Z</time>
      </trkpt>
      <trkpt lat="47.75468" lon="5.08112">
        <ele>385.2</ele>
        <time>2016-05-10T08:23:37Z</time>
      </trkpt>
      <trkpt lat="47.75454" lon="5.0811">
        <ele>385.1</ele>
        <time>2016-05-10T08:23:52Z</time>
      </trkpt>
      <trkpt lat="47.75442" lon="5.08097">
        <ele>385.1</ele>
        <time>2016-05-10T08:24:06Z</time>
      </trkpt>
      <trkpt lat="47.7543" lon="5.08083">
        <ele>385</ele>
        <time>2016-05-10T08:24:29Z</time>
      </trkpt>
      <trkpt lat="47.75418" lon="5.08075">
        <ele>384.9</ele>
        <time>2016-05-10T08:24:44Z</time>
      </trkpt>
      <trkpt lat="47.75407" lon="5.0806">
        <ele>384.8</ele>
        <time>2016-05-10T08:25:01Z</time>
      </trkpt>
      <trkpt lat="47.75396" lon="5.08048">
        <ele>384.8</ele>
        <time>2016-05-10T08:25:14Z</time>
      </trkpt>
      <trkpt lat="47.75386" lon="5.08033">
        <ele>384.7</ele>
        <time>2016-05-10T08:25:27Z</time>
      </trkpt>
      <trkpt lat="47.75374" lon="5.08021">
        <ele>384.6</ele>
        <time>2016-05-10T08:25:42Z</time>
      </trkpt>
      <trkpt lat="47.75364" lon="5.08006">
        <ele>384.6</ele>
        <time>2016-05-10T08:25:58Z</time>
      </trkpt>
      <trkpt lat="47.75354" lon="5.07991">
        <ele>384.5</ele>
        <time>2016-05-10T08:26:09Z</time>
      </trkpt>
      <trkpt lat="47.75343" lon="5.07975">
        <ele>384.5</ele>
        <time>2016-05-10T08:26:23Z</time>
      </trkpt>
      <trkpt lat="47.75333" lon="5.07961">
        <ele>384.4</ele>
        <time>2016-05-10T08:26:35Z</time>
      </trkpt>
      <trkpt lat="47.75329" lon="5.07941">
        <ele>384.3</ele>
        <time>2016-05-10T08:26:53Z</time>
      </trkpt>
      <trkpt lat="47.75321" lon="5.07924">
        <ele>384.3</ele>
        <time>2016-05-10T08:27:05Z</time>
      </trkpt>
      <trkpt lat="47.75313" lon="5.07906">
        <ele>384.2</ele>
        <time>2016-05-10T08:27:19Z</time>
      </trkpt>
      <trkpt lat="47.75305" lon="5.07888">
        <ele>384.2</ele>
        <time>2016-05-10T08:27:33Z</time>
      </trkpt>
      <trkpt lat="47.75298" lon="5.07871">
        <ele>384.1</ele>
        <time>2016-05-10T08:27:47Z</time>
      </trkpt>
      <trkpt lat="47.75287" lon="5.07859">
        <ele>384.1</ele>
        <time>2016-05-10T08:28:00Z</time>
      </trkpt>
      <trkpt lat="47.75273" lon="5.0785">
        <ele>384.1</ele>
        <time>2016-05-10T08:28:13Z</time>
      </trkpt>
      <trkpt lat="47.75259" lon="5.07845">
        <ele>384.2</ele>
        <time>2016-05-10T08:28:30Z</time>
      </trkpt>
      <trkpt lat="47.75245" lon="5.07841">
        <ele>384.2</ele>
        <time>2016-05-10T08:28:44Z</time>
      </trkpt>
      <trkpt lat="47.75232" lon="5.07838">
        <ele>384.3</ele>
        <time>2016-05-10T08:28:58Z</time>
      </trkpt>
      <trkpt lat="47.75219" lon="5.07831">
        <ele>384.3</ele>
        <time>2016-05-10T08:29:09Z</time>
      </trkpt>
      <trkpt lat="47.75206" lon="5.07824">
        <ele>384.4</ele>
        <time>2016-05-10T08:29:22Z</time>
      </trkpt>
      <trkpt lat="47.75192" lon="5.07818">
        <ele>384.4</ele>
        <time>2016-05-10T08:29:38Z</time>
      </trkpt>
      <trkpt lat="47.7518" lon="5.07811">
        <ele>384.5</ele>
        <time>2016-05-10T08:29:48Z</time>
      </trkpt>
      <trkpt lat="47.75166" lon="5.07809">
        <ele>384.5</ele>
        <time>2016-05-10T08:30:07Z</time>
      </trkpt>
      <trkpt lat="47.75152" lon="5.078">
        <ele>384.6</ele>
        <time>2016-05-10T08:30:20Z</time>
      </trkpt>
      <trkpt lat="47.75139" lon="5.07795">
        <ele>384.6</ele>
        <time>2016-05-10T08:30:34Z</time>
      </trkpt>
      <trkpt lat="47.75126" lon="5.07786">
        <ele>384.7</ele>
        <time>2016-05-10T08:30:47Z</time>
      </trkpt>
      <trkpt lat="47.75115" lon="5.07774">
        <ele>384.7</ele>
        <time>2016-05-10T08:30:57Z</time>
      </trkpt>
      <trkpt lat="47.75102" lon="5.0777">
        <ele>384.7</ele>
        <time>2016-05-10T08:31:12Z</time>
      </trkpt>
      <trkpt lat="47.75088" lon="5.07767">
        <ele>384.8</ele>
        <time>2016-05-10T08:31:25Z</time>
      </trkpt>
      <trkpt lat="47.75075" lon="5.07757">
        <ele>384.8</ele>
        <time>2016-05-10T08:31:38Z</time>
      </trkpt>
      <trkpt lat="47.75063" lon="5.07748">
        <ele>384.9</ele>
        <time>2016-05-10T08:31:51Z</time>
      </trkpt>
      <trkpt lat="47.75049" lon="5.0774">
        <ele>384.9</ele>
        <time>2016-05-10T08:32:05Z</time>
      </trkpt>
      <trkpt lat="47.75036" lon="5.07736">
        <ele>385</ele>
        <time>2016-05-10T08:32:23Z</time>
      </trkpt>
      <trkpt lat="47.75023" lon="5.07732">
        <ele>385</ele>
        <time>2016-05-10T08:32:36Z</time>
      </trkpt>
      <trkpt lat="47.75009" lon="5.07727">
        <ele>385.1</ele>
        <time>2016-05-10T08:32:48Z</time>
      </trkpt>
      <trkpt lat="47.74995" lon="5.07727">
        <ele>385.1</ele>
        <time>2016-05-10T08:33:02Z</time>
      </trkpt>
      <trkpt lat="47.74981" lon="5.07726">
        <ele>385.2</ele>
        <time>2016-05-10T08:33:16Z</time>
      </trkpt>
      <trkpt lat="47.74967" lon="5.07727">
        <ele>385.2</ele>
        <time>2016-05-10T08:33:28Z</time>
      </trkpt>
      <trkpt lat="47.74954" lon="5.07729">
        <ele>385.3</ele>
        <time>2016-05-10T08:33:46Z</time>
      </trkpt>
      <trkpt lat="47.7494" lon="5.07731">
        <ele>385.3</ele>
        <time>2016-05-10T08:34:00Z</time>
      </trkpt>
      <trkpt lat="47.74926" lon="5.07731">
        <ele>385.4</ele>
        <time>2016-05-10T08:34:12Z</time>
      </trkpt>
      <trkpt lat="47.74911" lon="5.0773">
        <ele>385.4</ele>
        <time>2016-05-10T08:34:26Z</time>
      </trkpt>
      <trkpt lat="47.74897" lon="5.07729">
        <ele>385.5</ele>
        <time>2016-05-10T08:34:40Z</time>
      </trkpt>
      <trkpt lat="47.74882" lon="5.07726">
        <ele>385.5</ele>
        <time>2016-05-10T08:34:55Z</time>
      </trkpt>
      <trkpt lat="47.74868" lon="5.07722">
        <ele>385.6</ele>
        <time>2016-05-10T08:35:10Z</time>
      </trkpt>
      <trkpt lat="47.74855" lon="5.07716">
        <ele>385.6</ele>
        <time>2016-05-10T08:35:23Z</time>
      </trkpt>
      <trkpt lat="47.74841" lon="5.07712">
        <ele>385.7</ele>
        <time>2016-05-10T08:35:35Z</time>
      </trkpt>
      <trkpt lat="47.74828" lon="5.07704">
        <ele>385.7</ele>
        <time>2016-05-10T08:35:49Z</time>
      </trkpt>
      <trkpt lat="47.74816" lon="5.07693">
        <ele>385.8</ele>
        <time>2016-05-10T08:36:03Z</time>
      </trkpt>
      <trkpt lat="47.74804" lon="5.07681">
        <ele>385.8</ele>
        <time>2016-05-10T08:36:17Z</time>
      </trkpt>
      <trkpt lat="47.74793" lon="5.07667">
        <ele>385.9</ele>
        <time>2016-05-10T08:36:31Z</time>
      </trkpt>
      <trkpt lat="47.74782" lon="5.07655">
        <ele>385.9</ele>
        <time>2016-05-10T08:36:45Z</time>
      </trkpt>
      <trkpt lat="47.74772" lon="5.0764">
        <ele>386</ele>
        <time>2016-05-10T08:36:59Z</time>
      </trkpt>
      <trkpt lat="47.74762" lon="5.07624">
        <ele>386</ele>
        <time>2016-05-10T08:37:13Z</time>
      </trkpt>
      <trkpt lat="47.74753" lon="5.07609">
        <ele>386</ele>
        <time>2016-05-10T08:37:26Z</time>
      </trkpt>
      <trkpt lat="47.74744" lon="5.07592">
        <ele>386.1</ele>
        <time>2016-05-10T08:37:40Z</time>
      </trkpt>
      <trkpt lat="47.74733" lon="5.0758">
        <ele>386.1</ele>
        <time>2016-05-10T08:37:52Z</time>
      </trkpt>
      <trkpt lat="47.74724" lon="5.07564">
        <ele>386.2</ele>
        <time>2016-05-10T08:38:06Z</time>
      </trkpt>
      <trkpt lat="47.74713" lon="5.07552">
        <ele>386.2</ele>
        <time>2016-05-10T08:38:18Z</time>
      </trkpt>
      <trkpt lat="47.74703" lon="5.07538">
        <ele>386.3</ele>
        <time>2016-05-10T08:38:31Z</time>
      </trkpt>
      <trkpt lat="47.74694" lon="5.07522">
        <ele>386.3</ele>
        <time>2016-05-10T08:38:46Z</time>
      </trkpt>
      <trkpt lat="47.74683" lon="5.07507">
        <ele>386.4</ele>
        <time>2016-05-10T08:39:01Z</time>
      </trkpt>
      <trkpt lat="47.74672" lon="5.07495">
        <ele>386.4</ele>
        <time>2016-05-10T08:39:12Z</time>
      </trkpt>
      <trkpt lat="47.74666" lon="5.07476">
        <ele>386.5</ele>
        <time>2016-05-10T08:39:30Z</time>
      </trkpt>
      <trkpt lat="47.74658" lon="5.0746">
        <ele>386.5</ele>
        <time>2016-05-10T08:39:43Z</time>
      </trkpt>
      <trkpt lat="47.74647" lon="5.07448">
        <ele>386.6</ele>
        <time>2016-05-10T08:39:55Z</time>
      </trkpt>
      <trkpt lat="47.74633" lon="5.0744">
        <ele>386.6</ele>
        <time>2016-05-10T08:40:09Z</time>
      </trkpt>
      <trkpt lat="47.7462" lon="5.07435">
        <ele>386.7</ele>
        <time>2016-05-10T08:40:25Z</time>
      </trkpt>
      <trkpt lat="47.74606" lon="5.0743">
        <ele>386.7</ele>
        <time>2016-05-10T08:40:39Z</time>
      </trkpt>
      <trkpt lat="47.74591" lon="5.07427">
        <ele>387.1</ele>
        <time>2016-05-10T08:42:25Z</time>
      </trkpt>
      <trkpt lat="47.74577" lon="5.07423">
        <ele>387.2</ele>
        <time>2016-05-10T08:42:43Z</time>
      </trkpt>
      <trkpt lat="47.74564" lon="5.0742">
        <ele>387.2</ele>
        <time>2016-05-10T08:42:56Z</time>
      </trkpt>
      <trkpt lat="47.7455" lon="5.07416">
        <ele>387.2</ele>
        <time>2016-05-10T08:43:09Z</time>
      </trkpt>
      <trkpt lat="47.74536" lon="5.07412">
        <ele>387.3</ele>
        <time>2016-05-10T08:43:22Z</time>
      </trkpt>
      <trkpt lat="47.74519" lon="5.07408">
        <ele>387.3</ele>
        <time>2016-05-10T08:43:35Z</time>
      </trkpt>
      <trkpt lat="47.74506" lon="5.07407">
        <ele>387.4</ele>
        <time>2016-05-10T08:43:52Z</time>
      </trkpt>
      <trkpt lat="47.74491" lon="5.07406">
        <ele>387.4</ele>
        <time>2016-05-10T08:44:07Z</time>
      </trkpt>
      <trkpt lat="47.74477" lon="5.07404">
        <ele>387.4</ele>
        <time>2016-05-10T08:44:20Z</time>
      </trkpt>
      <trkpt lat="47.74464" lon="5.07407">
        <ele>386.7</ele>
        <time>2016-05-10T08:44:36Z</time>
      </trkpt>
      <trkpt lat="47.7445" lon="5.07402">
        <ele>385.9</ele>
        <time>2016-05-10T08:44:51Z</time>
      </trkpt>
      <trkpt lat="47.74436" lon="5.07399">
        <ele>385.2</ele>
        <time>2016-05-10T08:45:07Z</time>
      </trkpt>
      <trkpt lat="47.74421" lon="5.07396">
        <ele>384.5</ele>
        <time>2016-05-10T08:45:20Z</time>
      </trkpt>
      <trkpt lat="47.74408" lon="5.07393">
        <ele>384</ele>
        <time>2016-05-10T08:45:33Z</time>
      </trkpt>
      <trkpt lat="47.74394" lon="5.07388">
        <ele>383.6</ele>
        <time>2016-05-10T08:45:47Z</time>
      </trkpt>
      <trkpt lat="47.74381" lon="5.07385">
        <ele>383.3</ele>
        <time>2016-05-10T08:46:00Z</time>
      </trkpt>
      <trkpt lat="47.74367" lon="5.07381">
        <ele>382.9</ele>
        <time>2016-05-10T08:46:13Z</time>
      </trkpt>
      <trkpt lat="47.74353" lon="5.07379">
        <ele>382.5</ele>
        <time>2016-05-10T08:46:27Z</time>
      </trkpt>
      <trkpt lat="47.74339" lon="5.07377">
        <ele>382.2</ele>
        <time>2016-05-10T08:46:40Z</time>
      </trkpt>
      <trkpt lat="47.74325" lon="5.07374">
        <ele>381.8</ele>
        <time>2016-05-10T08:46:55Z</time>
      </trkpt>
      <trkpt lat="47.74311" lon="5.07371">
        <ele>381.4</ele>
        <time>2016-05-10T08:47:09Z</time>
      </trkpt>
      <trkpt lat="47.74297" lon="5.07368">
        <ele>381.1</ele>
        <time>2016-05-10T08:47:22Z</time>
      </trkpt>
      <trkpt lat="47.74283" lon="5.07364">
        <ele>381.1</ele>
        <time>2016-05-10T08:47:37Z</time>
      </trkpt>
      <trkpt lat="47.7427" lon="5.07357">
        <ele>381.3</ele>
        <time>2016-05-10T08:47:52Z</time>
      </trkpt>
      <trkpt lat="47.74258" lon="5.07346">
        <ele>381.4</ele>
        <time>2016-05-10T08:48:05Z</time>
      </trkpt>
      <trkpt lat="47.74244" lon="5.07339">
        <ele>381.6</ele>
        <time>2016-05-10T08:48:19Z</time>
      </trkpt>
      <trkpt lat="47.74231" lon="5.07331">
        <ele>381.8</ele>
        <time>2016-05-10T08:48:34Z</time>
      </trkpt>
      <trkpt lat="47.74216" lon="5.07325">
        <ele>382</ele>
        <time>2016-05-10T08:48:52Z</time>
      </trkpt>
      <trkpt lat="47.74202" lon="5.07324">
        <ele>382.2</ele>
        <time>2016-05-10T08:49:09Z</time>
      </trkpt>
      <trkpt lat="47.74189" lon="5.07312">
        <ele>382.4</ele>
        <time>2016-05-10T08:49:23Z</time>
      </trkpt>
      <trkpt lat="47.74175" lon="5.07308">
        <ele>382.6</ele>
        <time>2016-05-10T08:49:40Z</time>
      </trkpt>
      <trkpt lat="47.74161" lon="5.07304">
        <ele>382.8</ele>
        <time>2016-05-10T08:49:55Z</time>
      </trkpt>
      <trkpt lat="47.74148" lon="5.07298">
        <ele>383</ele>
        <time>2016-05-10T08:50:10Z</time>
      </trkpt>
      <trkpt lat="47.74133" lon="5.07293">
        <ele>383.2</ele>
        <time>2016-05-10T08:50:27Z</time>
      </trkpt>
      <trkpt lat="47.74119" lon="5.07291">
        <ele>383.5</ele>
        <time>2016-05-10T08:50:45Z</time>
      </trkpt>
      <trkpt lat="47.74106" lon="5.07285">
        <ele>383.6</ele>
        <time>2016-05-10T08:50:56Z</time>
      </trkpt>
      <trkpt lat="47.74093" lon="5.07279">
        <ele>383.8</ele>
        <time>2016-05-10T08:51:13Z</time>
      </trkpt>
      <trkpt lat="47.74079" lon="5.07277">
        <ele>384</ele>
        <time>2016-05-10T08:51:29Z</time>
      </trkpt>
      <trkpt lat="47.74065" lon="5.07271">
        <ele>384.8</ele>
        <time>2016-05-10T08:51:44Z</time>
      </trkpt>
      <trkpt lat="47.74052" lon="5.07267">
        <ele>385.6</ele>
        <time>2016-05-10T08:51:59Z</time>
      </trkpt>
      <trkpt lat="47.74041" lon="5.07254">
        <ele>386.6</ele>
        <time>2016-05-10T08:52:17Z</time>
      </trkpt>
      <trkpt lat="47.74027" lon="5.07249">
        <ele>387.1</ele>
        <time>2016-05-10T08:52:31Z</time>
      </trkpt>
      <trkpt lat="47.74013" lon="5.07247">
        <ele>387.3</ele>
        <time>2016-05-10T08:52:47Z</time>
      </trkpt>
      <trkpt lat="47.73999" lon="5.07243">
        <ele>387.4</ele>
        <time>2016-05-10T08:53:02Z</time>
      </trkpt>
      <trkpt lat="47.73985" lon="5.07234">
        <ele>387.6</ele>
        <time>2016-05-10T08:53:17Z</time>
      </trkpt>
      <trkpt lat="47.73972" lon="5.07226">
        <ele>387.7</ele>
        <time>2016-05-10T08:53:33Z</time>
      </trkpt>
      <trkpt lat="47.73957" lon="5.07223">
        <ele>387.8</ele>
        <time>2016-05-10T08:53:46Z</time>
      </trkpt>
      <trkpt lat="47.73944" lon="5.07218">
        <ele>387.9</ele>
        <time>2016-05-10T08:54:00Z</time>
      </trkpt>
      <trkpt lat="47.73932" lon="5.07207">
        <ele>388.1</ele>
        <time>2016-05-10T08:54:14Z</time>
      </trkpt>
      <trkpt lat="47.73918" lon="5.07203">
        <ele>388.2</ele>
        <time>2016-05-10T08:54:29Z</time>
      </trkpt>
      <trkpt lat="47.73904" lon="5.07199">
        <ele>388.3</ele>
        <time>2016-05-10T08:54:43Z</time>
      </trkpt>
      <trkpt lat="47.73891" lon="5.07193">
        <ele>388.4</ele>
        <time>2016-05-10T08:54:56Z</time>
      </trkpt>
      <trkpt lat="47.73878" lon="5.07186">
        <ele>388.5</ele>
        <time>2016-05-10T08:55:09Z</time>
      </trkpt>
      <trkpt lat="47.73865" lon="5.07177">
        <ele>388.7</ele>
        <time>2016-05-10T08:55:22Z</time>
      </trkpt>
      <trkpt lat="47.73851" lon="5.07171">
        <ele>388.8</ele>
        <time>2016-05-10T08:55:37Z</time>
      </trkpt>
      <trkpt lat="47.73836" lon="5.07169">
        <ele>388.9</ele>
        <time>2016-05-10T08:55:48Z</time>
      </trkpt>
      <trkpt lat="47.73823" lon="5.07165">
        <ele>389</ele>
        <time>2016-05-10T08:56:02Z</time>
      </trkpt>
      <trkpt lat="47.73811" lon="5.07154">
        <ele>389.1</ele>
        <time>2016-05-10T08:56:17Z</time>
      </trkpt>
      <trkpt lat="47.73797" lon="5.0715">
        <ele>389.3</ele>
        <time>2016-05-10T08:56:32Z</time>
      </trkpt>
      <trkpt lat="47.73783" lon="5.07147">
        <ele>389.5</ele>
        <time>2016-05-10T08:57:00Z</time>
      </trkpt>
      <trkpt lat="47.73769" lon="5.07144">
        <ele>389.7</ele>
        <time>2016-05-10T08:57:16Z</time>
      </trkpt>
      <trkpt lat="47.73755" lon="5.07137">
        <ele>389.8</ele>
        <time>2016-05-10T08:57:28Z</time>
      </trkpt>
      <trkpt lat="47.73741" lon="5.07132">
        <ele>389.9</ele>
        <time>2016-05-10T08:57:38Z</time>
      </trkpt>
      <trkpt lat="47.73728" lon="5.07124">
        <ele>390</ele>
        <time>2016-05-10T08:57:53Z</time>
      </trkpt>
      <trkpt lat="47.73715" lon="5.07117">
        <ele>390.1</ele>
        <time>2016-05-10T08:58:08Z</time>
      </trkpt>
      <trkpt lat="47.73703" lon="5.07107">
        <ele>390.2</ele>
        <time>2016-05-10T08:58:20Z</time>
      </trkpt>
      <trkpt lat="47.7369" lon="5.07099">
        <ele>390.4</ele>
        <time>2016-05-10T08:58:36Z</time>
      </trkpt>
      <trkpt lat="47.73677" lon="5.07091">
        <ele>390.7</ele>
        <time>2016-05-10T08:58:52Z</time>
      </trkpt>
      <trkpt lat="47.73665" lon="5.0708">
        <ele>391</ele>
        <time>2016-05-10T08:59:03Z</time>
      </trkpt>
      <trkpt lat="47.73653" lon="5.07071">
        <ele>391.3</ele>
        <time>2016-05-10T08:59:15Z</time>
      </trkpt>
      <trkpt lat="47.73641" lon="5.07061">
        <ele>391.6</ele>
        <time>2016-05-10T08:59:26Z</time>
      </trkpt>
      <trkpt lat="47.73628" lon="5.07054">
        <ele>391.8</ele>
        <time>2016-05-10T08:59:37Z</time>
      </trkpt>
      <trkpt lat="47.73619" lon="5.07038">
        <ele>392.2</ele>
        <time>2016-05-10T08:59:54Z</time>
      </trkpt>
      <trkpt lat="47.73606" lon="5.07029">
        <ele>392.5</ele>
        <time>2016-05-10T09:00:07Z</time>
      </trkpt>
      <trkpt lat="47.73596" lon="5.07012">
        <ele>392.9</ele>
        <time>2016-05-10T09:00:22Z</time>
      </trkpt>
      <trkpt lat="47.73586" lon="5.06999">
        <ele>393.3</ele>
        <time>2016-05-10T09:00:37Z</time>
      </trkpt>
      <trkpt lat="47.73578" lon="5.06983">
        <ele>393.6</ele>
        <time>2016-05-10T09:00:54Z</time>
      </trkpt>
      <trkpt lat="47.73568" lon="5.06968">
        <ele>393.8</ele>
        <time>2016-05-10T09:01:06Z</time>
      </trkpt>
      <trkpt lat="47.73557" lon="5.06953">
        <ele>394.1</ele>
        <time>2016-05-10T09:01:20Z</time>
      </trkpt>
      <trkpt lat="47.73551" lon="5.06935">
        <ele>394.3</ele>
        <time>2016-05-10T09:01:33Z</time>
      </trkpt>
      <trkpt lat="47.73542" lon="5.06919">
        <ele>394.6</ele>
        <time>2016-05-10T09:01:46Z</time>
      </trkpt>
      <trkpt lat="47.73532" lon="5.06898">
        <ele>394.8</ele>
        <time>2016-05-10T09:02:00Z</time>
      </trkpt>
      <trkpt lat="47.73528" lon="5.06879">
        <ele>395.1</ele>
        <time>2016-05-10T09:02:16Z</time>
      </trkpt>
      <trkpt lat="47.73519" lon="5.06862">
        <ele>395.3</ele>
        <time>2016-05-10T09:02:29Z</time>
      </trkpt>
      <trkpt lat="47.73514" lon="5.06843">
        <ele>395.6</ele>
        <time>2016-05-10T09:02:43Z</time>
      </trkpt>
      <trkpt lat="47.73508" lon="5.06822">
        <ele>395.9</ele>
        <time>2016-05-10T09:02:59Z</time>
      </trkpt>
      <trkpt lat="47.735" lon="5.06803">
        <ele>396.1</ele>
        <time>2016-05-10T09:03:14Z</time>
      </trkpt>
      <trkpt lat="47.73494" lon="5.06782">
        <ele>396.4</ele>
        <time>2016-05-10T09:03:28Z</time>
      </trkpt>
      <trkpt lat="47.73491" lon="5.06763">
        <ele>396.6</ele>
        <time>2016-05-10T09:03:42Z</time>
      </trkpt>
      <trkpt lat="47.73489" lon="5.06746">
        <ele>396.9</ele>
        <time>2016-05-10T09:03:58Z</time>
      </trkpt>
      <trkpt lat="47.73477" lon="5.06735">
        <ele>397.5</ele>
        <time>2016-05-10T09:04:28Z</time>
      </trkpt>
      <trkpt lat="47.73469" lon="5.06718">
        <ele>397.7</ele>
        <time>2016-05-10T09:04:39Z</time>
      </trkpt>
      <trkpt lat="47.73459" lon="5.06705">
        <ele>398.3</ele>
        <time>2016-05-10T09:04:55Z</time>
      </trkpt>
      <trkpt lat="47.73452" lon="5.06688">
        <ele>402</ele>
        <time>2016-05-10T09:05:34Z</time>
      </trkpt>
      <trkpt lat="47.73458" lon="5.06669">
        <ele>403</ele>
        <time>2016-05-10T09:05:51Z</time>
      </trkpt>
      <trkpt lat="47.73463" lon="5.0665">
        <ele>404.8</ele>
        <time>2016-05-10T09:06:08Z</time>
      </trkpt>
      <trkpt lat="47.73467" lon="5.06637">
        <ele>406.1</ele>
        <time>2016-05-10T09:07:33Z</time>
      </trkpt>
      <trkpt lat="47.73399" lon="5.0682">
        <ele>451.2</ele>
        <time>2016-05-10T09:21:59Z</time>
      </trkpt>
      <trkpt lat="47.7339" lon="5.06902">
        <ele>436.4</ele>
        <time>2016-05-10T09:22:15Z</time>
      </trkpt>
      <trkpt lat="47.73386" lon="5.06905">
        <ele>427.6</ele>
        <time>2016-05-10T09:22:22Z</time>
      </trkpt>
      <trkpt lat="47.73392" lon="5.06909">
        <ele>408.5</ele>
        <time>2016-05-10T09:23:25Z</time>
      </trkpt>
      <trkpt lat="47.73397" lon="5.06929">
        <ele>409.8</ele>
        <time>2016-05-10T09:23:38Z</time>
      </trkpt>
      <trkpt lat="47.734" lon="5.0695">
        <ele>407</ele>
        <time>2016-05-10T09:23:51Z</time>
      </trkpt>
      <trkpt lat="47.73407" lon="5.06967">
        <ele>408.7</ele>
        <time>2016-05-10T09:24:04Z</time>
      </trkpt>
      <trkpt lat="47.73409" lon="5.06988">
        <ele>409.6</ele>
        <time>2016-05-10T09:24:20Z</time>
      </trkpt>
      <trkpt lat="47.73411" lon="5.07008">
        <ele>405.6</ele>
        <time>2016-05-10T09:24:35Z</time>
      </trkpt>
      <trkpt lat="47.73415" lon="5.07028">
        <ele>403.2</ele>
        <time>2016-05-10T09:24:47Z</time>
      </trkpt>
      <trkpt lat="47.73417" lon="5.07047">
        <ele>400.9</ele>
        <time>2016-05-10T09:25:02Z</time>
      </trkpt>
      <trkpt lat="47.73412" lon="5.07066">
        <ele>396.2</ele>
        <time>2016-05-10T09:25:19Z</time>
      </trkpt>
      <trkpt lat="47.73407" lon="5.07086">
        <ele>400.2</ele>
        <time>2016-05-10T09:25:34Z</time>
      </trkpt>
      <trkpt lat="47.73402" lon="5.07106">
        <ele>402.7</ele>
        <time>2016-05-10T09:25:46Z</time>
      </trkpt>
      <trkpt lat="47.73394" lon="5.07123">
        <ele>405.9</ele>
        <time>2016-05-10T09:26:03Z</time>
      </trkpt>
      <trkpt lat="47.73385" lon="5.0714">
        <ele>407.5</ele>
        <time>2016-05-10T09:26:14Z</time>
      </trkpt>
      <trkpt lat="47.73376" lon="5.07156">
        <ele>409.1</ele>
        <time>2016-05-10T09:26:29Z</time>
      </trkpt>
      <trkpt lat="47.73366" lon="5.07172">
        <ele>411.9</ele>
        <time>2016-05-10T09:26:46Z</time>
      </trkpt>
      <trkpt lat="47.73361" lon="5.0719">
        <ele>413.1</ele>
        <time>2016-05-10T09:27:02Z</time>
      </trkpt>
      <trkpt lat="47.73356" lon="5.0721">
        <ele>414.3</ele>
        <time>2016-05-10T09:27:14Z</time>
      </trkpt>
      <trkpt lat="47.7335" lon="5.0723">
        <ele>402.3</ele>
        <time>2016-05-10T09:27:30Z</time>
      </trkpt>
      <trkpt lat="47.73342" lon="5.07247">
        <ele>401.7</ele>
        <time>2016-05-10T09:27:48Z</time>
      </trkpt>
      <trkpt lat="47.7333" lon="5.07259">
        <ele>405.2</ele>
        <time>2016-05-10T09:28:14Z</time>
      </trkpt>
      <trkpt lat="47.73316" lon="5.07263">
        <ele>410.5</ele>
        <time>2016-05-10T09:28:35Z</time>
      </trkpt>
      <trkpt lat="47.73303" lon="5.0727">
        <ele>415.8</ele>
        <time>2016-05-10T09:28:57Z</time>
      </trkpt>
      <trkpt lat="47.73293" lon="5.07286">
        <ele>415.7</ele>
        <time>2016-05-10T09:29:17Z</time>
      </trkpt>
      <trkpt lat="47.73279" lon="5.07289">
        <ele>415.7</ele>
        <time>2016-05-10T09:29:36Z</time>
      </trkpt>
      <trkpt lat="47.73264" lon="5.07286">
        <ele>417.3</ele>
        <time>2016-05-10T09:29:47Z</time>
      </trkpt>
      <trkpt lat="47.7325" lon="5.07293">
        <ele>420.6</ele>
        <time>2016-05-10T09:30:10Z</time>
      </trkpt>
      <trkpt lat="47.73236" lon="5.07293">
        <ele>424.9</ele>
        <time>2016-05-10T09:30:31Z</time>
      </trkpt>
      <trkpt lat="47.73222" lon="5.07295">
        <ele>429.3</ele>
        <time>2016-05-10T09:30:53Z</time>
      </trkpt>
      <trkpt lat="47.73209" lon="5.07288">
        <ele>428.2</ele>
        <time>2016-05-10T09:31:07Z</time>
      </trkpt>
      <trkpt lat="47.73196" lon="5.07283">
        <ele>425.8</ele>
        <time>2016-05-10T09:31:32Z</time>
      </trkpt>
      <trkpt lat="47.73182" lon="5.07276">
        <ele>423.7</ele>
        <time>2016-05-10T09:32:00Z</time>
      </trkpt>
      <trkpt lat="47.7317" lon="5.07266">
        <ele>425.6</ele>
        <time>2016-05-10T09:32:18Z</time>
      </trkpt>
      <trkpt lat="47.73156" lon="5.07261">
        <ele>427.6</ele>
        <time>2016-05-10T09:32:37Z</time>
      </trkpt>
      <trkpt lat="47.73142" lon="5.07261">
        <ele>434.7</ele>
        <time>2016-05-10T09:33:03Z</time>
      </trkpt>
      <trkpt lat="47.73128" lon="5.07257">
        <ele>443.9</ele>
        <time>2016-05-10T09:33:23Z</time>
      </trkpt>
      <trkpt lat="47.73115" lon="5.07254">
        <ele>449.9</ele>
        <time>2016-05-10T09:33:44Z</time>
      </trkpt>
      <trkpt lat="47.73116" lon="5.0725">
        <ele>450</ele>
        <time>2016-05-10T09:33:48Z</time>
      </trkpt>
      <trkpt lat="47.73101" lon="5.07251">
        <ele>450.6</ele>
        <time>2016-05-10T09:34:09Z</time>
      </trkpt>
      <trkpt lat="47.73088" lon="5.07242">
        <ele>452.2</ele>
        <time>2016-05-10T09:34:29Z</time>
      </trkpt>
      <trkpt lat="47.73073" lon="5.07239">
        <ele>453.4</ele>
        <time>2016-05-10T09:34:56Z</time>
      </trkpt>
      <trkpt lat="47.73059" lon="5.07238">
        <ele>459.9</ele>
        <time>2016-05-10T09:35:15Z</time>
      </trkpt>
      <trkpt lat="47.73045" lon="5.07235">
        <ele>463.1</ele>
        <time>2016-05-10T09:35:30Z</time>
      </trkpt>
      <trkpt lat="47.73037" lon="5.07233">
        <ele>461.5</ele>
        <time>2016-05-10T09:35:40Z</time>
      </trkpt>
      <trkpt lat="47.73023" lon="5.07226">
        <ele>469.5</ele>
        <time>2016-05-10T09:36:06Z</time>
      </trkpt>
      <trkpt lat="47.7301" lon="5.07227">
        <ele>464.7</ele>
        <time>2016-05-10T09:36:22Z</time>
      </trkpt>
      <trkpt lat="47.72995" lon="5.07221">
        <ele>462.5</ele>
        <time>2016-05-10T09:36:42Z</time>
      </trkpt>
      <trkpt lat="47.72981" lon="5.07216">
        <ele>458.8</ele>
        <time>2016-05-10T09:36:58Z</time>
      </trkpt>
      <trkpt lat="47.72967" lon="5.07213">
        <ele>460.4</ele>
        <time>2016-05-10T09:37:15Z</time>
      </trkpt>
      <trkpt lat="47.72953" lon="5.07213">
        <ele>461.5</ele>
        <time>2016-05-10T09:37:31Z</time>
      </trkpt>
      <trkpt lat="47.7294" lon="5.07217">
        <ele>461</ele>
        <time>2016-05-10T09:37:49Z</time>
      </trkpt>
      <trkpt lat="47.72926" lon="5.07222">
        <ele>460.6</ele>
        <time>2016-05-10T09:38:06Z</time>
      </trkpt>
      <trkpt lat="47.72912" lon="5.07228">
        <ele>460</ele>
        <time>2016-05-10T09:38:25Z</time>
      </trkpt>
      <trkpt lat="47.72898" lon="5.07234">
        <ele>459.5</ele>
        <time>2016-05-10T09:38:42Z</time>
      </trkpt>
      <trkpt lat="47.72883" lon="5.0724">
        <ele>458.9</ele>
        <time>2016-05-10T09:39:05Z</time>
      </trkpt>
      <trkpt lat="47.72868" lon="5.07244">
        <ele>458.4</ele>
        <time>2016-05-10T09:39:24Z</time>
      </trkpt>
      <trkpt lat="47.72854" lon="5.07244">
        <ele>459.9</ele>
        <time>2016-05-10T09:39:43Z</time>
      </trkpt>
      <trkpt lat="47.72839" lon="5.07241">
        <ele>462.3</ele>
        <time>2016-05-10T09:40:02Z</time>
      </trkpt>
      <trkpt lat="47.72825" lon="5.07246">
        <ele>462.7</ele>
        <time>2016-05-10T09:40:17Z</time>
      </trkpt>
      <trkpt lat="47.72812" lon="5.07254">
        <ele>463</ele>
        <time>2016-05-10T09:40:33Z</time>
      </trkpt>
      <trkpt lat="47.72801" lon="5.07269">
        <ele>463.4</ele>
        <time>2016-05-10T09:40:50Z</time>
      </trkpt>
      <trkpt lat="47.72792" lon="5.07284">
        <ele>463.7</ele>
        <time>2016-05-10T09:41:05Z</time>
      </trkpt>
      <trkpt lat="47.72779" lon="5.07294">
        <ele>464.1</ele>
        <time>2016-05-10T09:41:21Z</time>
      </trkpt>
      <trkpt lat="47.7277" lon="5.07311">
        <ele>464.5</ele>
        <time>2016-05-10T09:41:39Z</time>
      </trkpt>
      <trkpt lat="47.72756" lon="5.07307">
        <ele>464.9</ele>
        <time>2016-05-10T09:41:57Z</time>
      </trkpt>
      <trkpt lat="47.72742" lon="5.07306">
        <ele>465.2</ele>
        <time>2016-05-10T09:42:13Z</time>
      </trkpt>
      <trkpt lat="47.72728" lon="5.073">
        <ele>465.5</ele>
        <time>2016-05-10T09:42:27Z</time>
      </trkpt>
      <trkpt lat="47.72714" lon="5.07301">
        <ele>466.7</ele>
        <time>2016-05-10T09:42:46Z</time>
      </trkpt>
      <trkpt lat="47.727" lon="5.07299">
        <ele>467.9</ele>
        <time>2016-05-10T09:43:00Z</time>
      </trkpt>
      <trkpt lat="47.72686" lon="5.07298">
        <ele>468.9</ele>
        <time>2016-05-10T09:43:12Z</time>
      </trkpt>
      <trkpt lat="47.72673" lon="5.07309">
        <ele>467.5</ele>
        <time>2016-05-10T09:43:29Z</time>
      </trkpt>
      <trkpt lat="47.72662" lon="5.07321">
        <ele>465.1</ele>
        <time>2016-05-10T09:43:46Z</time>
      </trkpt>
      <trkpt lat="47.72654" lon="5.07338">
        <ele>461.9</ele>
        <time>2016-05-10T09:44:03Z</time>
      </trkpt>
      <trkpt lat="47.72641" lon="5.07345">
        <ele>462.5</ele>
        <time>2016-05-10T09:44:15Z</time>
      </trkpt>
      <trkpt lat="47.72628" lon="5.07353">
        <ele>463.3</ele>
        <time>2016-05-10T09:44:29Z</time>
      </trkpt>
      <trkpt lat="47.72616" lon="5.07364">
        <ele>464.3</ele>
        <time>2016-05-10T09:44:47Z</time>
      </trkpt>
      <trkpt lat="47.72602" lon="5.07362">
        <ele>465.7</ele>
        <time>2016-05-10T09:45:08Z</time>
      </trkpt>
      <trkpt lat="47.72587" lon="5.07359">
        <ele>467</ele>
        <time>2016-05-10T09:45:20Z</time>
      </trkpt>
      <trkpt lat="47.72573" lon="5.0736">
        <ele>469</ele>
        <time>2016-05-10T09:45:37Z</time>
      </trkpt>
      <trkpt lat="47.72559" lon="5.07362">
        <ele>470.1</ele>
        <time>2016-05-10T09:45:53Z</time>
      </trkpt>
      <trkpt lat="47.72545" lon="5.07361">
        <ele>472.7</ele>
        <time>2016-05-10T09:46:11Z</time>
      </trkpt>
      <trkpt lat="47.7253" lon="5.07356">
        <ele>474.7</ele>
        <time>2016-05-10T09:46:28Z</time>
      </trkpt>
      <trkpt lat="47.72516" lon="5.07354">
        <ele>475.8</ele>
        <time>2016-05-10T09:46:42Z</time>
      </trkpt>
      <trkpt lat="47.725" lon="5.07346">
        <ele>476.7</ele>
        <time>2016-05-10T09:46:58Z</time>
      </trkpt>
      <trkpt lat="47.72486" lon="5.07341">
        <ele>478.7</ele>
        <time>2016-05-10T09:47:20Z</time>
      </trkpt>
      <trkpt lat="47.72471" lon="5.0734">
        <ele>481.1</ele>
        <time>2016-05-10T09:47:43Z</time>
      </trkpt>
      <trkpt lat="47.72457" lon="5.07348">
        <ele>481.9</ele>
        <time>2016-05-10T09:47:58Z</time>
      </trkpt>
      <trkpt lat="47.72445" lon="5.07358">
        <ele>482.9</ele>
        <time>2016-05-10T09:48:15Z</time>
      </trkpt>
      <trkpt lat="47.72432" lon="5.07364">
        <ele>483.7</ele>
        <time>2016-05-10T09:48:30Z</time>
      </trkpt>
      <trkpt lat="47.72419" lon="5.07365">
        <ele>484.4</ele>
        <time>2016-05-10T09:48:43Z</time>
      </trkpt>
      <trkpt lat="47.72405" lon="5.07359">
        <ele>482.7</ele>
        <time>2016-05-10T09:48:55Z</time>
      </trkpt>
      <trkpt lat="47.7239" lon="5.07353">
        <ele>479.5</ele>
        <time>2016-05-10T09:49:11Z</time>
      </trkpt>
      <trkpt lat="47.72378" lon="5.07343">
        <ele>480.3</ele>
        <time>2016-05-10T09:49:26Z</time>
      </trkpt>
      <trkpt lat="47.72366" lon="5.0733">
        <ele>481.2</ele>
        <time>2016-05-10T09:49:44Z</time>
      </trkpt>
      <trkpt lat="47.72353" lon="5.07318">
        <ele>481.9</ele>
        <time>2016-05-10T09:49:59Z</time>
      </trkpt>
      <trkpt lat="47.72342" lon="5.07306">
        <ele>482.6</ele>
        <time>2016-05-10T09:50:13Z</time>
      </trkpt>
      <trkpt lat="47.72333" lon="5.07289">
        <ele>482.8</ele>
        <time>2016-05-10T09:50:29Z</time>
      </trkpt>
      <trkpt lat="47.72323" lon="5.07272">
        <ele>482.4</ele>
        <time>2016-05-10T09:50:45Z</time>
      </trkpt>
      <trkpt lat="47.72312" lon="5.07259">
        <ele>482.2</ele>
        <time>2016-05-10T09:51:00Z</time>
      </trkpt>
      <trkpt lat="47.72303" lon="5.07243">
        <ele>481.9</ele>
        <time>2016-05-10T09:51:15Z</time>
      </trkpt>
      <trkpt lat="47.72294" lon="5.07229">
        <ele>481.6</ele>
        <time>2016-05-10T09:51:30Z</time>
      </trkpt>
      <trkpt lat="47.72284" lon="5.07213">
        <ele>481.3</ele>
        <time>2016-05-10T09:51:45Z</time>
      </trkpt>
      <trkpt lat="47.72274" lon="5.07199">
        <ele>481</ele>
        <time>2016-05-10T09:52:00Z</time>
      </trkpt>
      <trkpt lat="47.72264" lon="5.07183">
        <ele>480.7</ele>
        <time>2016-05-10T09:52:15Z</time>
      </trkpt>
      <trkpt lat="47.72254" lon="5.07169">
        <ele>480.5</ele>
        <time>2016-05-10T09:52:29Z</time>
      </trkpt>
      <trkpt lat="47.72244" lon="5.07154">
        <ele>480.2</ele>
        <time>2016-05-10T09:52:44Z</time>
      </trkpt>
      <trkpt lat="47.72243" lon="5.07133">
        <ele>480</ele>
        <time>2016-05-10T09:52:56Z</time>
      </trkpt>
      <trkpt lat="47.72233" lon="5.07117">
        <ele>479.3</ele>
        <time>2016-05-10T09:53:12Z</time>
      </trkpt>
      <trkpt lat="47.72226" lon="5.07098">
        <ele>478.3</ele>
        <time>2016-05-10T09:53:26Z</time>
      </trkpt>
      <trkpt lat="47.72214" lon="5.07086">
        <ele>477.3</ele>
        <time>2016-05-10T09:53:41Z</time>
      </trkpt>
      <trkpt lat="47.72203" lon="5.07073">
        <ele>476.3</ele>
        <time>2016-05-10T09:53:55Z</time>
      </trkpt>
      <trkpt lat="47.72195" lon="5.07055">
        <ele>475.9</ele>
        <time>2016-05-10T09:54:09Z</time>
      </trkpt>
      <trkpt lat="47.72183" lon="5.07042">
        <ele>477.4</ele>
        <time>2016-05-10T09:54:24Z</time>
      </trkpt>
      <trkpt lat="47.72172" lon="5.07031">
        <ele>478.4</ele>
        <time>2016-05-10T09:54:39Z</time>
      </trkpt>
      <trkpt lat="47.72159" lon="5.07022">
        <ele>478</ele>
        <time>2016-05-10T09:54:52Z</time>
      </trkpt>
      <trkpt lat="47.72146" lon="5.07013">
        <ele>477.4</ele>
        <time>2016-05-10T09:55:09Z</time>
      </trkpt>
      <trkpt lat="47.72132" lon="5.07004">
        <ele>477</ele>
        <time>2016-05-10T09:55:23Z</time>
      </trkpt>
      <trkpt lat="47.7212" lon="5.06997">
        <ele>476.5</ele>
        <time>2016-05-10T09:55:37Z</time>
      </trkpt>
      <trkpt lat="47.72105" lon="5.06992">
        <ele>475.9</ele>
        <time>2016-05-10T09:55:53Z</time>
      </trkpt>
      <trkpt lat="47.72091" lon="5.06989">
        <ele>475.4</ele>
        <time>2016-05-10T09:56:08Z</time>
      </trkpt>
      <trkpt lat="47.72077" lon="5.06986">
        <ele>474.9</ele>
        <time>2016-05-10T09:56:25Z</time>
      </trkpt>
      <trkpt lat="47.72077" lon="5.06965">
        <ele>473.8</ele>
        <time>2016-05-10T09:56:42Z</time>
      </trkpt>
      <trkpt lat="47.72085" lon="5.06949">
        <ele>472.7</ele>
        <time>2016-05-10T09:56:59Z</time>
      </trkpt>
      <trkpt lat="47.72094" lon="5.06933">
        <ele>471.6</ele>
        <time>2016-05-10T09:57:14Z</time>
      </trkpt>
      <trkpt lat="47.72095" lon="5.06925">
        <ele>471.8</ele>
        <time>2016-05-10T09:57:21Z</time>
      </trkpt>
      <trkpt lat="47.72105" lon="5.06909">
        <ele>473</ele>
        <time>2016-05-10T09:57:34Z</time>
      </trkpt>
      <trkpt lat="47.72109" lon="5.06889">
        <ele>474.2</ele>
        <time>2016-05-10T09:57:47Z</time>
      </trkpt>
      <trkpt lat="47.72116" lon="5.06869">
        <ele>475.5</ele>
        <time>2016-05-10T09:58:01Z</time>
      </trkpt>
      <trkpt lat="47.72119" lon="5.0685">
        <ele>476.4</ele>
        <time>2016-05-10T09:58:13Z</time>
      </trkpt>
      <trkpt lat="47.72125" lon="5.06831">
        <ele>474.3</ele>
        <time>2016-05-10T09:58:27Z</time>
      </trkpt>
      <trkpt lat="47.72126" lon="5.06811">
        <ele>472.1</ele>
        <time>2016-05-10T09:58:41Z</time>
      </trkpt>
      <trkpt lat="47.72127" lon="5.06789">
        <ele>467.6</ele>
        <time>2016-05-10T09:58:58Z</time>
      </trkpt>
      <trkpt lat="47.72132" lon="5.06769">
        <ele>473.4</ele>
        <time>2016-05-10T09:59:12Z</time>
      </trkpt>
      <trkpt lat="47.72138" lon="5.06751">
        <ele>475.6</ele>
        <time>2016-05-10T09:59:28Z</time>
      </trkpt>
      <trkpt lat="47.72141" lon="5.0673">
        <ele>472.9</ele>
        <time>2016-05-10T09:59:42Z</time>
      </trkpt>
      <trkpt lat="47.72144" lon="5.0671">
        <ele>471.9</ele>
        <time>2016-05-10T09:59:57Z</time>
      </trkpt>
      <trkpt lat="47.7215" lon="5.06691">
        <ele>474</ele>
        <time>2016-05-10T10:00:08Z</time>
      </trkpt>
      <trkpt lat="47.72151" lon="5.06671">
        <ele>475.4</ele>
        <time>2016-05-10T10:00:20Z</time>
      </trkpt>
      <trkpt lat="47.72151" lon="5.06651">
        <ele>475.8</ele>
        <time>2016-05-10T10:00:36Z</time>
      </trkpt>
      <trkpt lat="47.72154" lon="5.06631">
        <ele>476.2</ele>
        <time>2016-05-10T10:00:51Z</time>
      </trkpt>
      <trkpt lat="47.72152" lon="5.0661">
        <ele>476.5</ele>
        <time>2016-05-10T10:01:03Z</time>
      </trkpt>
      <trkpt lat="47.72157" lon="5.06591">
        <ele>476.7</ele>
        <time>2016-05-10T10:01:15Z</time>
      </trkpt>
      <trkpt lat="47.72161" lon="5.06571">
        <ele>477.1</ele>
        <time>2016-05-10T10:01:30Z</time>
      </trkpt>
      <trkpt lat="47.72159" lon="5.0655">
        <ele>477.5</ele>
        <time>2016-05-10T10:01:44Z</time>
      </trkpt>
      <trkpt lat="47.72162" lon="5.0653">
        <ele>477.8</ele>
        <time>2016-05-10T10:01:57Z</time>
      </trkpt>
      <trkpt lat="47.72164" lon="5.06509">
        <ele>478.1</ele>
        <time>2016-05-10T10:02:11Z</time>
      </trkpt>
      <trkpt lat="47.72164" lon="5.06487">
        <ele>478.5</ele>
        <time>2016-05-10T10:02:28Z</time>
      </trkpt>
      <trkpt lat="47.72161" lon="5.06466">
        <ele>478.9</ele>
        <time>2016-05-10T10:02:41Z</time>
      </trkpt>
      <trkpt lat="47.72157" lon="5.06446">
        <ele>479.1</ele>
        <time>2016-05-10T10:02:57Z</time>
      </trkpt>
      <trkpt lat="47.72155" lon="5.06425">
        <ele>478.5</ele>
        <time>2016-05-10T10:03:09Z</time>
      </trkpt>
      <trkpt lat="47.72152" lon="5.06404">
        <ele>477.9</ele>
        <time>2016-05-10T10:03:24Z</time>
      </trkpt>
      <trkpt lat="47.72149" lon="5.06385">
        <ele>477.3</ele>
        <time>2016-05-10T10:03:38Z</time>
      </trkpt>
      <trkpt lat="47.7215" lon="5.06364">
        <ele>476.6</ele>
        <time>2016-05-10T10:03:53Z</time>
      </trkpt>
      <trkpt lat="47.72146" lon="5.06344">
        <ele>475.7</ele>
        <time>2016-05-10T10:04:14Z</time>
      </trkpt>
      <trkpt lat="47.7214" lon="5.06326">
        <ele>475.1</ele>
        <time>2016-05-10T10:04:28Z</time>
      </trkpt>
      <trkpt lat="47.72136" lon="5.06306">
        <ele>474.7</ele>
        <time>2016-05-10T10:04:43Z</time>
      </trkpt>
      <trkpt lat="47.72129" lon="5.06288">
        <ele>474.4</ele>
        <time>2016-05-10T10:04:53Z</time>
      </trkpt>
      <trkpt lat="47.72124" lon="5.06267">
        <ele>474.1</ele>
        <time>2016-05-10T10:05:07Z</time>
      </trkpt>
      <trkpt lat="47.72119" lon="5.06248">
        <ele>473.9</ele>
        <time>2016-05-10T10:05:19Z</time>
      </trkpt>
      <trkpt lat="47.72109" lon="5.06232">
        <ele>473.6</ele>
        <time>2016-05-10T10:05:32Z</time>
      </trkpt>
      <trkpt lat="47.72104" lon="5.06212">
        <ele>473.3</ele>
        <time>2016-05-10T10:05:47Z</time>
      </trkpt>
      <trkpt lat="47.721" lon="5.06193">
        <ele>473</ele>
        <time>2016-05-10T10:06:00Z</time>
      </trkpt>
      <trkpt lat="47.72093" lon="5.06175">
        <ele>472.7</ele>
        <time>2016-05-10T10:06:13Z</time>
      </trkpt>
      <trkpt lat="47.72085" lon="5.06158">
        <ele>472.4</ele>
        <time>2016-05-10T10:06:28Z</time>
      </trkpt>
      <trkpt lat="47.72081" lon="5.06148">
        <ele>472.1</ele>
        <time>2016-05-10T10:06:40Z</time>
      </trkpt>
      <trkpt lat="47.72085" lon="5.06141">
        <ele>472</ele>
        <time>2016-05-10T10:06:46Z</time>
      </trkpt>
      <trkpt lat="47.72072" lon="5.06135">
        <ele>472</ele>
        <time>2016-05-10T10:07:05Z</time>
      </trkpt>
      <trkpt lat="47.72056" lon="5.06136">
        <ele>472.4</ele>
        <time>2016-05-10T10:07:20Z</time>
      </trkpt>
      <trkpt lat="47.72042" lon="5.06134">
        <ele>472.9</ele>
        <time>2016-05-10T10:07:39Z</time>
      </trkpt>
      <trkpt lat="47.72029" lon="5.06129">
        <ele>473.3</ele>
        <time>2016-05-10T10:07:54Z</time>
      </trkpt>
      <trkpt lat="47.72014" lon="5.06131">
        <ele>473.9</ele>
        <time>2016-05-10T10:08:18Z</time>
      </trkpt>
      <trkpt lat="47.72" lon="5.06132">
        <ele>474.2</ele>
        <time>2016-05-10T10:08:30Z</time>
      </trkpt>
      <trkpt lat="47.71986" lon="5.06128">
        <ele>474.6</ele>
        <time>2016-05-10T10:08:47Z</time>
      </trkpt>
      <trkpt lat="47.71972" lon="5.06122">
        <ele>475</ele>
        <time>2016-05-10T10:09:02Z</time>
      </trkpt>
      <trkpt lat="47.71958" lon="5.06123">
        <ele>475.5</ele>
        <time>2016-05-10T10:09:21Z</time>
      </trkpt>
      <trkpt lat="47.71944" lon="5.06123">
        <ele>475.8</ele>
        <time>2016-05-10T10:09:35Z</time>
      </trkpt>
      <trkpt lat="47.7193" lon="5.06122">
        <ele>476.2</ele>
        <time>2016-05-10T10:09:50Z</time>
      </trkpt>
      <trkpt lat="47.71916" lon="5.06119">
        <ele>477.7</ele>
        <time>2016-05-10T10:10:09Z</time>
      </trkpt>
      <trkpt lat="47.71901" lon="5.06118">
        <ele>477.8</ele>
        <time>2016-05-10T10:10:24Z</time>
      </trkpt>
      <trkpt lat="47.71887" lon="5.06116">
        <ele>477.5</ele>
        <time>2016-05-10T10:10:37Z</time>
      </trkpt>
      <trkpt lat="47.71872" lon="5.06113">
        <ele>477.2</ele>
        <time>2016-05-10T10:10:48Z</time>
      </trkpt>
      <trkpt lat="47.71858" lon="5.06115">
        <ele>476.7</ele>
        <time>2016-05-10T10:11:07Z</time>
      </trkpt>
      <trkpt lat="47.71844" lon="5.06121">
        <ele>476.4</ele>
        <time>2016-05-10T10:11:19Z</time>
      </trkpt>
      <trkpt lat="47.71831" lon="5.06121">
        <ele>476</ele>
        <time>2016-05-10T10:11:34Z</time>
      </trkpt>
      <trkpt lat="47.71816" lon="5.06124">
        <ele>475.5</ele>
        <time>2016-05-10T10:11:52Z</time>
      </trkpt>
      <trkpt lat="47.71801" lon="5.06125">
        <ele>475.2</ele>
        <time>2016-05-10T10:12:04Z</time>
      </trkpt>
      <trkpt lat="47.71787" lon="5.06124">
        <ele>474.8</ele>
        <time>2016-05-10T10:12:17Z</time>
      </trkpt>
      <trkpt lat="47.71773" lon="5.06123">
        <ele>474.3</ele>
        <time>2016-05-10T10:12:35Z</time>
      </trkpt>
      <trkpt lat="47.71759" lon="5.06125">
        <ele>474</ele>
        <time>2016-05-10T10:12:48Z</time>
      </trkpt>
      <trkpt lat="47.71745" lon="5.06126">
        <ele>473.5</ele>
        <time>2016-05-10T10:13:06Z</time>
      </trkpt>
      <trkpt lat="47.71731" lon="5.06122">
        <ele>473.2</ele>
        <time>2016-05-10T10:13:19Z</time>
      </trkpt>
      <trkpt lat="47.71717" lon="5.06118">
        <ele>473.4</ele>
        <time>2016-05-10T10:13:34Z</time>
      </trkpt>
      <trkpt lat="47.71703" lon="5.06114">
        <ele>474.1</ele>
        <time>2016-05-10T10:13:55Z</time>
      </trkpt>
      <trkpt lat="47.71688" lon="5.06109">
        <ele>474.4</ele>
        <time>2016-05-10T10:14:06Z</time>
      </trkpt>
      <trkpt lat="47.71674" lon="5.06108">
        <ele>474.9</ele>
        <time>2016-05-10T10:14:19Z</time>
      </trkpt>
      <trkpt lat="47.7166" lon="5.06104">
        <ele>475.2</ele>
        <time>2016-05-10T10:14:30Z</time>
      </trkpt>
      <trkpt lat="47.71646" lon="5.06097">
        <ele>475.8</ele>
        <time>2016-05-10T10:14:49Z</time>
      </trkpt>
      <trkpt lat="47.71631" lon="5.06096">
        <ele>476.4</ele>
        <time>2016-05-10T10:15:05Z</time>
      </trkpt>
      <trkpt lat="47.71617" lon="5.06095">
        <ele>476.2</ele>
        <time>2016-05-10T10:15:20Z</time>
      </trkpt>
      <trkpt lat="47.71603" lon="5.06092">
        <ele>474.6</ele>
        <time>2016-05-10T10:15:38Z</time>
      </trkpt>
      <trkpt lat="47.71588" lon="5.06094">
        <ele>473.4</ele>
        <time>2016-05-10T10:15:52Z</time>
      </trkpt>
      <trkpt lat="47.71574" lon="5.06096">
        <ele>471.8</ele>
        <time>2016-05-10T10:16:11Z</time>
      </trkpt>
      <trkpt lat="47.7156" lon="5.06097">
        <ele>471.7</ele>
        <time>2016-05-10T10:16:21Z</time>
      </trkpt>
      <trkpt lat="47.71546" lon="5.06103">
        <ele>472.5</ele>
        <time>2016-05-10T10:16:38Z</time>
      </trkpt>
      <trkpt lat="47.71533" lon="5.06109">
        <ele>473.2</ele>
        <time>2016-05-10T10:16:53Z</time>
      </trkpt>
      <trkpt lat="47.7152" lon="5.06118">
        <ele>474</ele>
        <time>2016-05-10T10:17:09Z</time>
      </trkpt>
      <trkpt lat="47.71506" lon="5.06124">
        <ele>474.6</ele>
        <time>2016-05-10T10:17:23Z</time>
      </trkpt>
      <trkpt lat="47.71491" lon="5.06122">
        <ele>475.1</ele>
        <time>2016-05-10T10:17:34Z</time>
      </trkpt>
      <trkpt lat="47.71477" lon="5.06127">
        <ele>475.5</ele>
        <time>2016-05-10T10:17:49Z</time>
      </trkpt>
      <trkpt lat="47.71463" lon="5.06131">
        <ele>475.8</ele>
        <time>2016-05-10T10:18:07Z</time>
      </trkpt>
      <trkpt lat="47.7145" lon="5.06123">
        <ele>476.2</ele>
        <time>2016-05-10T10:18:24Z</time>
      </trkpt>
      <trkpt lat="47.71436" lon="5.06117">
        <ele>476.6</ele>
        <time>2016-05-10T10:18:41Z</time>
      </trkpt>
      <trkpt lat="47.71422" lon="5.06118">
        <ele>477</ele>
        <time>2016-05-10T10:18:58Z</time>
      </trkpt>
      <trkpt lat="47.71408" lon="5.06112">
        <ele>477.2</ele>
        <time>2016-05-10T10:19:09Z</time>
      </trkpt>
      <trkpt lat="47.71393" lon="5.06112">
        <ele>477.5</ele>
        <time>2016-05-10T10:19:24Z</time>
      </trkpt>
      <trkpt lat="47.71379" lon="5.06114">
        <ele>477.9</ele>
        <time>2016-05-10T10:19:43Z</time>
      </trkpt>
      <trkpt lat="47.71371" lon="5.06097">
        <ele>482.6</ele>
        <time>2016-05-10T10:20:16Z</time>
      </trkpt>
      <trkpt lat="47.71366" lon="5.06076">
        <ele>481</ele>
        <time>2016-05-10T10:20:31Z</time>
      </trkpt>
      <trkpt lat="47.71364" lon="5.06055">
        <ele>479.3</ele>
        <time>2016-05-10T10:20:47Z</time>
      </trkpt>
      <trkpt lat="47.71363" lon="5.06035">
        <ele>477.9</ele>
        <time>2016-05-10T10:21:00Z</time>
      </trkpt>
      <trkpt lat="47.71358" lon="5.06015">
        <ele>476.5</ele>
        <time>2016-05-10T10:21:13Z</time>
      </trkpt>
      <trkpt lat="47.71353" lon="5.05995">
        <ele>475.2</ele>
        <time>2016-05-10T10:21:26Z</time>
      </trkpt>
      <trkpt lat="47.71348" lon="5.05975">
        <ele>473.7</ele>
        <time>2016-05-10T10:21:40Z</time>
      </trkpt>
      <trkpt lat="47.71348" lon="5.05956">
        <ele>474.2</ele>
        <time>2016-05-10T10:21:54Z</time>
      </trkpt>
      <trkpt lat="47.71347" lon="5.05935">
        <ele>476.9</ele>
        <time>2016-05-10T10:22:14Z</time>
      </trkpt>
      <trkpt lat="47.71342" lon="5.05916">
        <ele>474.9</ele>
        <time>2016-05-10T10:22:29Z</time>
      </trkpt>
      <trkpt lat="47.71338" lon="5.05895">
        <ele>473.1</ele>
        <time>2016-05-10T10:22:42Z</time>
      </trkpt>
      <trkpt lat="47.71332" lon="5.05876">
        <ele>473.8</ele>
        <time>2016-05-10T10:22:56Z</time>
      </trkpt>
      <trkpt lat="47.71329" lon="5.05857">
        <ele>474.4</ele>
        <time>2016-05-10T10:23:07Z</time>
      </trkpt>
      <trkpt lat="47.71325" lon="5.05837">
        <ele>475.1</ele>
        <time>2016-05-10T10:23:20Z</time>
      </trkpt>
      <trkpt lat="47.71328" lon="5.05817">
        <ele>475.8</ele>
        <time>2016-05-10T10:23:34Z</time>
      </trkpt>
      <trkpt lat="47.71322" lon="5.05799">
        <ele>475</ele>
        <time>2016-05-10T10:23:51Z</time>
      </trkpt>
      <trkpt lat="47.71318" lon="5.05778">
        <ele>473.2</ele>
        <time>2016-05-10T10:24:07Z</time>
      </trkpt>
      <trkpt lat="47.71315" lon="5.05759">
        <ele>471.9</ele>
        <time>2016-05-10T10:24:18Z</time>
      </trkpt>
      <trkpt lat="47.71312" lon="5.05739">
        <ele>470</ele>
        <time>2016-05-10T10:24:34Z</time>
      </trkpt>
      <trkpt lat="47.71306" lon="5.0572">
        <ele>470.3</ele>
        <time>2016-05-10T10:24:52Z</time>
      </trkpt>
      <trkpt lat="47.71304" lon="5.05699">
        <ele>470.7</ele>
        <time>2016-05-10T10:25:07Z</time>
      </trkpt>
      <trkpt lat="47.71302" lon="5.05679">
        <ele>471.2</ele>
        <time>2016-05-10T10:25:20Z</time>
      </trkpt>
      <trkpt lat="47.71301" lon="5.05659">
        <ele>471.7</ele>
        <time>2016-05-10T10:25:37Z</time>
      </trkpt>
      <trkpt lat="47.71299" lon="5.05639">
        <ele>472.2</ele>
        <time>2016-05-10T10:25:52Z</time>
      </trkpt>
      <trkpt lat="47.71291" lon="5.05623">
        <ele>472.6</ele>
        <time>2016-05-10T10:26:04Z</time>
      </trkpt>
      <trkpt lat="47.71287" lon="5.05602">
        <ele>473.1</ele>
        <time>2016-05-10T10:26:20Z</time>
      </trkpt>
      <trkpt lat="47.7128" lon="5.05584">
        <ele>474.2</ele>
        <time>2016-05-10T10:26:32Z</time>
      </trkpt>
      <trkpt lat="47.71279" lon="5.05564">
        <ele>476</ele>
        <time>2016-05-10T10:26:46Z</time>
      </trkpt>
      <trkpt lat="47.71281" lon="5.05543">
        <ele>477.2</ele>
        <time>2016-05-10T10:27:04Z</time>
      </trkpt>
      <trkpt lat="47.71276" lon="5.05523">
        <ele>477.6</ele>
        <time>2016-05-10T10:27:18Z</time>
      </trkpt>
      <trkpt lat="47.71273" lon="5.05503">
        <ele>478</ele>
        <time>2016-05-10T10:27:31Z</time>
      </trkpt>
      <trkpt lat="47.71268" lon="5.05483">
        <ele>478.4</ele>
        <time>2016-05-10T10:27:45Z</time>
      </trkpt>
      <trkpt lat="47.71266" lon="5.05462">
        <ele>478.9</ele>
        <time>2016-05-10T10:27:59Z</time>
      </trkpt>
      <trkpt lat="47.71262" lon="5.05442">
        <ele>479.4</ele>
        <time>2016-05-10T10:28:14Z</time>
      </trkpt>
      <trkpt lat="47.71259" lon="5.05422">
        <ele>479.7</ele>
        <time>2016-05-10T10:28:26Z</time>
      </trkpt>
      <trkpt lat="47.71252" lon="5.05404">
        <ele>480.2</ele>
        <time>2016-05-10T10:28:40Z</time>
      </trkpt>
      <trkpt lat="47.71249" lon="5.05387">
        <ele>480.6</ele>
        <time>2016-05-10T10:28:54Z</time>
      </trkpt>
      <trkpt lat="47.71254" lon="5.05367">
        <ele>478.7</ele>
        <time>2016-05-10T10:29:09Z</time>
      </trkpt>
      <trkpt lat="47.71255" lon="5.05346">
        <ele>475.9</ele>
        <time>2016-05-10T10:29:24Z</time>
      </trkpt>
      <trkpt lat="47.71251" lon="5.05325">
        <ele>474.3</ele>
        <time>2016-05-10T10:29:37Z</time>
      </trkpt>
      <trkpt lat="47.71246" lon="5.05306">
        <ele>472.9</ele>
        <time>2016-05-10T10:29:49Z</time>
      </trkpt>
      <trkpt lat="47.7124" lon="5.05287">
        <ele>473.2</ele>
        <time>2016-05-10T10:30:04Z</time>
      </trkpt>
      <trkpt lat="47.71237" lon="5.05266">
        <ele>471.7</ele>
        <time>2016-05-10T10:30:19Z</time>
      </trkpt>
      <trkpt lat="47.71234" lon="5.05252">
        <ele>470.5</ele>
        <time>2016-05-10T10:30:31Z</time>
      </trkpt>
      <trkpt lat="47.71226" lon="5.05241">
        <ele>472.7</ele>
        <time>2016-05-10T10:30:52Z</time>
      </trkpt>
      <trkpt lat="47.71227" lon="5.05221">
        <ele>470.4</ele>
        <time>2016-05-10T10:31:07Z</time>
      </trkpt>
      <trkpt lat="47.71217" lon="5.05207">
        <ele>467.9</ele>
        <time>2016-05-10T10:31:25Z</time>
      </trkpt>
      <trkpt lat="47.71205" lon="5.05197">
        <ele>466.1</ele>
        <time>2016-05-10T10:31:41Z</time>
      </trkpt>
      <trkpt lat="47.7119" lon="5.05191">
        <ele>465.4</ele>
        <time>2016-05-10T10:31:53Z</time>
      </trkpt>
      <trkpt lat="47.71176" lon="5.05188">
        <ele>465.6</ele>
        <time>2016-05-10T10:32:05Z</time>
      </trkpt>
      <trkpt lat="47.71163" lon="5.05181">
        <ele>466.3</ele>
        <time>2016-05-10T10:32:17Z</time>
      </trkpt>
      <trkpt lat="47.71148" lon="5.05178">
        <ele>466.6</ele>
        <time>2016-05-10T10:32:33Z</time>
      </trkpt>
      <trkpt lat="47.71134" lon="5.05174">
        <ele>466.9</ele>
        <time>2016-05-10T10:32:46Z</time>
      </trkpt>
      <trkpt lat="47.71121" lon="5.05166">
        <ele>467.1</ele>
        <time>2016-05-10T10:32:59Z</time>
      </trkpt>
      <trkpt lat="47.71107" lon="5.05162">
        <ele>467.4</ele>
        <time>2016-05-10T10:33:16Z</time>
      </trkpt>
      <trkpt lat="47.71093" lon="5.05154">
        <ele>467.7</ele>
        <time>2016-05-10T10:33:30Z</time>
      </trkpt>
      <trkpt lat="47.7108" lon="5.05148">
        <ele>467.9</ele>
        <time>2016-05-10T10:33:39Z</time>
      </trkpt>
      <trkpt lat="47.71066" lon="5.05143">
        <ele>468.2</ele>
        <time>2016-05-10T10:33:53Z</time>
      </trkpt>
      <trkpt lat="47.71053" lon="5.05137">
        <ele>468.4</ele>
        <time>2016-05-10T10:34:04Z</time>
      </trkpt>
      <trkpt lat="47.7104" lon="5.0513">
        <ele>468.6</ele>
        <time>2016-05-10T10:34:15Z</time>
      </trkpt>
      <trkpt lat="47.71027" lon="5.0512">
        <ele>468.9</ele>
        <time>2016-05-10T10:34:30Z</time>
      </trkpt>
      <trkpt lat="47.71018" lon="5.05103">
        <ele>469.2</ele>
        <time>2016-05-10T10:34:46Z</time>
      </trkpt>
      <trkpt lat="47.71008" lon="5.0509">
        <ele>469.4</ele>
        <time>2016-05-10T10:34:58Z</time>
      </trkpt>
      <trkpt lat="47.70995" lon="5.05079">
        <ele>469.7</ele>
        <time>2016-05-10T10:35:12Z</time>
      </trkpt>
      <trkpt lat="47.70983" lon="5.05069">
        <ele>470</ele>
        <time>2016-05-10T10:35:27Z</time>
      </trkpt>
      <trkpt lat="47.70969" lon="5.05063">
        <ele>470.3</ele>
        <time>2016-05-10T10:35:40Z</time>
      </trkpt>
      <trkpt lat="47.70955" lon="5.05054">
        <ele>470.5</ele>
        <time>2016-05-10T10:35:54Z</time>
      </trkpt>
      <trkpt lat="47.70942" lon="5.0505">
        <ele>470.8</ele>
        <time>2016-05-10T10:36:07Z</time>
      </trkpt>
      <trkpt lat="47.70929" lon="5.05045">
        <ele>471.1</ele>
        <time>2016-05-10T10:36:22Z</time>
      </trkpt>
      <trkpt lat="47.70912" lon="5.05039">
        <ele>471.6</ele>
        <time>2016-05-10T10:36:36Z</time>
      </trkpt>
      <trkpt lat="47.70898" lon="5.05039">
        <ele>470.9</ele>
        <time>2016-05-10T10:36:50Z</time>
      </trkpt>
      <trkpt lat="47.70884" lon="5.05035">
        <ele>467.5</ele>
        <time>2016-05-10T10:37:03Z</time>
      </trkpt>
      <trkpt lat="47.7087" lon="5.05028">
        <ele>466.3</ele>
        <time>2016-05-10T10:37:18Z</time>
      </trkpt>
      <trkpt lat="47.70857" lon="5.05025">
        <ele>465.2</ele>
        <time>2016-05-10T10:37:33Z</time>
      </trkpt>
      <trkpt lat="47.70843" lon="5.0502">
        <ele>465</ele>
        <time>2016-05-10T10:37:45Z</time>
      </trkpt>
      <trkpt lat="47.7083" lon="5.05016">
        <ele>464.9</ele>
        <time>2016-05-10T10:37:58Z</time>
      </trkpt>
      <trkpt lat="47.70815" lon="5.05014">
        <ele>463.6</ele>
        <time>2016-05-10T10:38:11Z</time>
      </trkpt>
      <trkpt lat="47.70802" lon="5.05018">
        <ele>462.2</ele>
        <time>2016-05-10T10:38:25Z</time>
      </trkpt>
      <trkpt lat="47.70789" lon="5.05025">
        <ele>461.3</ele>
        <time>2016-05-10T10:38:39Z</time>
      </trkpt>
      <trkpt lat="47.70775" lon="5.05032">
        <ele>460.8</ele>
        <time>2016-05-10T10:38:53Z</time>
      </trkpt>
      <trkpt lat="47.70761" lon="5.05037">
        <ele>460.3</ele>
        <time>2016-05-10T10:39:09Z</time>
      </trkpt>
      <trkpt lat="47.70749" lon="5.05046">
        <ele>459.9</ele>
        <time>2016-05-10T10:39:22Z</time>
      </trkpt>
      <trkpt lat="47.70735" lon="5.05051">
        <ele>459.4</ele>
        <time>2016-05-10T10:39:35Z</time>
      </trkpt>
      <trkpt lat="47.70721" lon="5.05048">
        <ele>459</ele>
        <time>2016-05-10T10:39:46Z</time>
      </trkpt>
      <trkpt lat="47.70709" lon="5.05059">
        <ele>458.6</ele>
        <time>2016-05-10T10:40:00Z</time>
      </trkpt>
      <trkpt lat="47.70697" lon="5.0507">
        <ele>458.1</ele>
        <time>2016-05-10T10:40:15Z</time>
      </trkpt>
      <trkpt lat="47.70684" lon="5.05079">
        <ele>456.9</ele>
        <time>2016-05-10T10:40:30Z</time>
      </trkpt>
      <trkpt lat="47.70671" lon="5.05081">
        <ele>455.7</ele>
        <time>2016-05-10T10:40:44Z</time>
      </trkpt>
      <trkpt lat="47.70662" lon="5.05065">
        <ele>454</ele>
        <time>2016-05-10T10:41:09Z</time>
      </trkpt>
      <trkpt lat="47.7066" lon="5.05045">
        <ele>453.3</ele>
        <time>2016-05-10T10:41:22Z</time>
      </trkpt>
      <trkpt lat="47.70654" lon="5.05026">
        <ele>451.5</ele>
        <time>2016-05-10T10:41:58Z</time>
      </trkpt>
      <trkpt lat="47.70643" lon="5.05013">
        <ele>450.5</ele>
        <time>2016-05-10T10:42:10Z</time>
      </trkpt>
      <trkpt lat="47.7064" lon="5.05011">
        <ele>450</ele>
        <time>2016-05-10T10:42:14Z</time>
      </trkpt>
      <trkpt lat="47.70627" lon="5.05007">
        <ele>448.4</ele>
        <time>2016-05-10T10:42:27Z</time>
      </trkpt>
      <trkpt lat="47.70616" lon="5.05">
        <ele>446.5</ele>
        <time>2016-05-10T10:42:46Z</time>
      </trkpt>
      <trkpt lat="47.70603" lon="5.05005">
        <ele>444.1</ele>
        <time>2016-05-10T10:43:15Z</time>
      </trkpt>
      <trkpt lat="47.7059" lon="5.05011">
        <ele>442.6</ele>
        <time>2016-05-10T10:43:28Z</time>
      </trkpt>
      <trkpt lat="47.70576" lon="5.05012">
        <ele>440.9</ele>
        <time>2016-05-10T10:43:39Z</time>
      </trkpt>
      <trkpt lat="47.70562" lon="5.05017">
        <ele>439.4</ele>
        <time>2016-05-10T10:43:49Z</time>
      </trkpt>
      <trkpt lat="47.70548" lon="5.0502">
        <ele>436.4</ele>
        <time>2016-05-10T10:44:13Z</time>
      </trkpt>
      <trkpt lat="47.70533" lon="5.05022">
        <ele>434.9</ele>
        <time>2016-05-10T10:44:32Z</time>
      </trkpt>
      <trkpt lat="47.70518" lon="5.05027">
        <ele>433.6</ele>
        <time>2016-05-10T10:44:46Z</time>
      </trkpt>
      <trkpt lat="47.70504" lon="5.05028">
        <ele>432.2</ele>
        <time>2016-05-10T10:45:00Z</time>
      </trkpt>
      <trkpt lat="47.7049" lon="5.05031">
        <ele>431</ele>
        <time>2016-05-10T10:45:14Z</time>
      </trkpt>
      <trkpt lat="47.70476" lon="5.05033">
        <ele>430.1</ele>
        <time>2016-05-10T10:45:27Z</time>
      </trkpt>
      <trkpt lat="47.70462" lon="5.05028">
        <ele>429.4</ele>
        <time>2016-05-10T10:45:38Z</time>
      </trkpt>
      <trkpt lat="47.70448" lon="5.05029">
        <ele>428.3</ele>
        <time>2016-05-10T10:45:53Z</time>
      </trkpt>
      <trkpt lat="47.70434" lon="5.05026">
        <ele>427.4</ele>
        <time>2016-05-10T10:46:02Z</time>
      </trkpt>
      <trkpt lat="47.7042" lon="5.05026">
        <ele>425.7</ele>
        <time>2016-05-10T10:46:16Z</time>
      </trkpt>
      <trkpt lat="47.70406" lon="5.05027">
        <ele>424</ele>
        <time>2016-05-10T10:46:30Z</time>
      </trkpt>
      <trkpt lat="47.70392" lon="5.05033">
        <ele>422.4</ele>
        <time>2016-05-10T10:46:43Z</time>
      </trkpt>
      <trkpt lat="47.70379" lon="5.05036">
        <ele>420.8</ele>
        <time>2016-05-10T10:46:56Z</time>
      </trkpt>
      <trkpt lat="47.70364" lon="5.0504">
        <ele>418.8</ele>
        <time>2016-05-10T10:47:20Z</time>
      </trkpt>
      <trkpt lat="47.70351" lon="5.05038">
        <ele>415.5</ele>
        <time>2016-05-10T10:47:37Z</time>
      </trkpt>
      <trkpt lat="47.70338" lon="5.05027">
        <ele>412.9</ele>
        <time>2016-05-10T10:47:51Z</time>
      </trkpt>
      <trkpt lat="47.70331" lon="5.0501">
        <ele>409.8</ele>
        <time>2016-05-10T10:48:07Z</time>
      </trkpt>
      <trkpt lat="47.70326" lon="5.0499">
        <ele>406.2</ele>
        <time>2016-05-10T10:48:22Z</time>
      </trkpt>
      <trkpt lat="47.70322" lon="5.04969">
        <ele>404.4</ele>
        <time>2016-05-10T10:48:43Z</time>
      </trkpt>
      <trkpt lat="47.70321" lon="5.04948">
        <ele>403.1</ele>
        <time>2016-05-10T10:48:58Z</time>
      </trkpt>
      <trkpt lat="47.70315" lon="5.0493">
        <ele>401.9</ele>
        <time>2016-05-10T10:49:11Z</time>
      </trkpt>
      <trkpt lat="47.70312" lon="5.04909">
        <ele>400.1</ele>
        <time>2016-05-10T10:49:28Z</time>
      </trkpt>
      <trkpt lat="47.70309" lon="5.04889">
        <ele>398.3</ele>
        <time>2016-05-10T10:49:45Z</time>
      </trkpt>
      <trkpt lat="47.70304" lon="5.0487">
        <ele>397.3</ele>
        <time>2016-05-10T10:49:58Z</time>
      </trkpt>
      <trkpt lat="47.70305" lon="5.04872">
        <ele>395.4</ele>
        <time>2016-05-10T10:50:24Z</time>
      </trkpt>
      <trkpt lat="47.70294" lon="5.04858">
        <ele>393.3</ele>
        <time>2016-05-10T10:50:54Z</time>
      </trkpt>
      <trkpt lat="47.70287" lon="5.04842">
        <ele>390.7</ele>
        <time>2016-05-10T10:51:32Z</time>
      </trkpt>
      <trkpt lat="47.7028" lon="5.04822">
        <ele>390</ele>
        <time>2016-05-10T10:51:52Z</time>
      </trkpt>
      <trkpt lat="47.70278" lon="5.0481">
        <ele>389.6</ele>
        <time>2016-05-10T10:52:04Z</time>
      </trkpt>
      <trkpt lat="47.70279" lon="5.04809">
        <ele>388.3</ele>
        <time>2016-05-10T10:52:51Z</time>
      </trkpt>
      <trkpt lat="47.70269" lon="5.04796">
        <ele>387.8</ele>
        <time>2016-05-10T10:53:08Z</time>
      </trkpt>
      <trkpt lat="47.70264" lon="5.04777">
        <ele>387.4</ele>
        <time>2016-05-10T10:53:21Z</time>
      </trkpt>
      <trkpt lat="47.70254" lon="5.04761">
        <ele>386.3</ele>
        <time>2016-05-10T10:53:35Z</time>
      </trkpt>
      <trkpt lat="47.70247" lon="5.04743">
        <ele>385.4</ele>
        <time>2016-05-10T10:53:47Z</time>
      </trkpt>
      <trkpt lat="47.70242" lon="5.04724">
        <ele>384.2</ele>
        <time>2016-05-10T10:54:02Z</time>
      </trkpt>
      <trkpt lat="47.70239" lon="5.04703">
        <ele>384</ele>
        <time>2016-05-10T10:54:17Z</time>
      </trkpt>
      <trkpt lat="47.70236" lon="5.04696">
        <ele>382</ele>
        <time>2016-05-10T10:57:29Z</time>
      </trkpt>
      <trkpt lat="47.70227" lon="5.04681">
        <ele>381.1</ele>
        <time>2016-05-10T10:58:47Z</time>
      </trkpt>
      <trkpt lat="47.70218" lon="5.04664">
        <ele>380.9</ele>
        <time>2016-05-10T10:59:05Z</time>
      </trkpt>
      <trkpt lat="47.70206" lon="5.04654">
        <ele>379</ele>
        <time>2016-05-10T10:59:44Z</time>
      </trkpt>
      <trkpt lat="47.70202" lon="5.04633">
        <ele>377.8</ele>
        <time>2016-05-10T11:00:01Z</time>
      </trkpt>
      <trkpt lat="47.702" lon="5.04613">
        <ele>377.9</ele>
        <time>2016-05-10T11:00:16Z</time>
      </trkpt>
      <trkpt lat="47.70194" lon="5.04594">
        <ele>378</ele>
        <time>2016-05-10T11:00:35Z</time>
      </trkpt>
      <trkpt lat="47.70182" lon="5.04584">
        <ele>378.2</ele>
        <time>2016-05-10T11:00:57Z</time>
      </trkpt>
      <trkpt lat="47.70172" lon="5.0458">
        <ele>378.3</ele>
        <time>2016-05-10T11:01:06Z</time>
      </trkpt>
      <trkpt lat="47.70165" lon="5.04575">
        <ele>378.7</ele>
        <time>2016-05-10T11:01:55Z</time>
      </trkpt>
      <trkpt lat="47.70167" lon="5.04575">
        <ele>378.7</ele>
        <time>2016-05-10T11:01:58Z</time>
      </trkpt>
      <trkpt lat="47.70153" lon="5.04571">
        <ele>378.9</ele>
        <time>2016-05-10T11:02:13Z</time>
      </trkpt>
      <trkpt lat="47.70143" lon="5.04556">
        <ele>379</ele>
        <time>2016-05-10T11:02:28Z</time>
      </trkpt>
      <trkpt lat="47.70131" lon="5.04542">
        <ele>379.1</ele>
        <time>2016-05-10T11:02:40Z</time>
      </trkpt>
      <trkpt lat="47.70121" lon="5.04528">
        <ele>379.2</ele>
        <time>2016-05-10T11:02:54Z</time>
      </trkpt>
      <trkpt lat="47.70108" lon="5.04532">
        <ele>379.4</ele>
        <time>2016-05-10T11:03:11Z</time>
      </trkpt>
      <trkpt lat="47.70093" lon="5.04529">
        <ele>379.5</ele>
        <time>2016-05-10T11:03:28Z</time>
      </trkpt>
      <trkpt lat="47.70086" lon="5.0451">
        <ele>379.7</ele>
        <time>2016-05-10T11:03:44Z</time>
      </trkpt>
      <trkpt lat="47.70083" lon="5.04489">
        <ele>379.8</ele>
        <time>2016-05-10T11:04:03Z</time>
      </trkpt>
      <trkpt lat="47.70079" lon="5.04469">
        <ele>380</ele>
        <time>2016-05-10T11:04:21Z</time>
      </trkpt>
      <trkpt lat="47.70078" lon="5.04449">
        <ele>380.1</ele>
        <time>2016-05-10T11:04:35Z</time>
      </trkpt>
      <trkpt lat="47.70072" lon="5.04431">
        <ele>380.2</ele>
        <time>2016-05-10T11:04:51Z</time>
      </trkpt>
      <trkpt lat="47.70062" lon="5.04414">
        <ele>380.4</ele>
        <time>2016-05-10T11:05:06Z</time>
      </trkpt>
      <trkpt lat="47.7005" lon="5.04402">
        <ele>380.5</ele>
        <time>2016-05-10T11:05:22Z</time>
      </trkpt>
      <trkpt lat="47.70041" lon="5.04386">
        <ele>380.7</ele>
        <time>2016-05-10T11:05:41Z</time>
      </trkpt>
      <trkpt lat="47.70033" lon="5.04369">
        <ele>380.9</ele>
        <time>2016-05-10T11:05:59Z</time>
      </trkpt>
      <trkpt lat="47.70025" lon="5.04351">
        <ele>382.2</ele>
        <time>2016-05-10T11:06:22Z</time>
      </trkpt>
      <trkpt lat="47.70015" lon="5.04334">
        <ele>384.3</ele>
        <time>2016-05-10T11:06:58Z</time>
      </trkpt>
      <trkpt lat="47.70007" lon="5.04317">
        <ele>385.5</ele>
        <time>2016-05-10T11:07:16Z</time>
      </trkpt>
      <trkpt lat="47.69996" lon="5.04304">
        <ele>386.4</ele>
        <time>2016-05-10T11:07:30Z</time>
      </trkpt>
      <trkpt lat="47.69986" lon="5.0429">
        <ele>387.5</ele>
        <time>2016-05-10T11:07:46Z</time>
      </trkpt>
      <trkpt lat="47.69973" lon="5.04274">
        <ele>388.9</ele>
        <time>2016-05-10T11:08:05Z</time>
      </trkpt>
      <trkpt lat="47.69961" lon="5.04263">
        <ele>390.5</ele>
        <time>2016-05-10T11:08:26Z</time>
      </trkpt>
      <trkpt lat="47.69949" lon="5.04251">
        <ele>391.6</ele>
        <time>2016-05-10T11:08:47Z</time>
      </trkpt>
      <trkpt lat="47.69939" lon="5.04238">
        <ele>392.6</ele>
        <time>2016-05-10T11:09:05Z</time>
      </trkpt>
      <trkpt lat="47.69928" lon="5.04224">
        <ele>394.3</ele>
        <time>2016-05-10T11:09:30Z</time>
      </trkpt>
      <trkpt lat="47.69917" lon="5.04211">
        <ele>396.7</ele>
        <time>2016-05-10T11:09:50Z</time>
      </trkpt>
      <trkpt lat="47.69905" lon="5.04201">
        <ele>398.6</ele>
        <time>2016-05-10T11:10:09Z</time>
      </trkpt>
      <trkpt lat="47.69894" lon="5.04189">
        <ele>400.4</ele>
        <time>2016-05-10T11:10:30Z</time>
      </trkpt>
      <trkpt lat="47.69885" lon="5.04173">
        <ele>402.3</ele>
        <time>2016-05-10T11:10:52Z</time>
      </trkpt>
      <trkpt lat="47.69874" lon="5.04158">
        <ele>404.4</ele>
        <time>2016-05-10T11:11:16Z</time>
      </trkpt>
      <trkpt lat="47.69866" lon="5.04144">
        <ele>407</ele>
        <time>2016-05-10T11:11:41Z</time>
      </trkpt>
      <trkpt lat="47.69869" lon="5.04142">
        <ele>407.2</ele>
        <time>2016-05-10T11:11:43Z</time>
      </trkpt>
      <trkpt lat="47.69857" lon="5.04131">
        <ele>409</ele>
        <time>2016-05-10T11:12:02Z</time>
      </trkpt>
      <trkpt lat="47.69849" lon="5.04115">
        <ele>412.3</ele>
        <time>2016-05-10T11:12:35Z</time>
      </trkpt>
      <trkpt lat="47.69838" lon="5.04103">
        <ele>415.1</ele>
        <time>2016-05-10T11:13:01Z</time>
      </trkpt>
      <trkpt lat="47.69828" lon="5.04089">
        <ele>418</ele>
        <time>2016-05-10T11:13:28Z</time>
      </trkpt>
      <trkpt lat="47.69818" lon="5.04076">
        <ele>421.9</ele>
        <time>2016-05-10T11:14:01Z</time>
      </trkpt>
      <trkpt lat="47.69807" lon="5.04061">
        <ele>424.8</ele>
        <time>2016-05-10T11:14:31Z</time>
      </trkpt>
      <trkpt lat="47.69799" lon="5.04045">
        <ele>427.2</ele>
        <time>2016-05-10T11:14:56Z</time>
      </trkpt>
      <trkpt lat="47.69798" lon="5.04025">
        <ele>428.5</ele>
        <time>2016-05-10T11:15:14Z</time>
      </trkpt>
      <trkpt lat="47.69788" lon="5.04012">
        <ele>429.6</ele>
        <time>2016-05-10T11:15:30Z</time>
      </trkpt>
      <trkpt lat="47.69775" lon="5.04003">
        <ele>431.6</ele>
        <time>2016-05-10T11:15:52Z</time>
      </trkpt>
      <trkpt lat="47.69765" lon="5.03995">
        <ele>435.2</ele>
        <time>2016-05-10T11:16:22Z</time>
      </trkpt>
      <trkpt lat="47.69752" lon="5.04007">
        <ele>438.5</ele>
        <time>2016-05-10T11:16:44Z</time>
      </trkpt>
      <trkpt lat="47.69742" lon="5.0402">
        <ele>438.9</ele>
        <time>2016-05-10T11:17:02Z</time>
      </trkpt>
      <trkpt lat="47.69741" lon="5.04041">
        <ele>439.1</ele>
        <time>2016-05-10T11:17:21Z</time>
      </trkpt>
      <trkpt lat="47.6974" lon="5.04062">
        <ele>439.3</ele>
        <time>2016-05-10T11:17:35Z</time>
      </trkpt>
      <trkpt lat="47.69743" lon="5.04082">
        <ele>439.4</ele>
        <time>2016-05-10T11:17:49Z</time>
      </trkpt>
      <trkpt lat="47.69747" lon="5.04101">
        <ele>439.6</ele>
        <time>2016-05-10T11:18:02Z</time>
      </trkpt>
      <trkpt lat="47.69747" lon="5.04123">
        <ele>439.8</ele>
        <time>2016-05-10T11:18:19Z</time>
      </trkpt>
      <trkpt lat="47.69751" lon="5.04143">
        <ele>440</ele>
        <time>2016-05-10T11:18:36Z</time>
      </trkpt>
      <trkpt lat="47.69742" lon="5.04158">
        <ele>440.2</ele>
        <time>2016-05-10T11:18:53Z</time>
      </trkpt>
      <trkpt lat="47.69745" lon="5.04178">
        <ele>440.5</ele>
        <time>2016-05-10T11:19:13Z</time>
      </trkpt>
      <trkpt lat="47.69747" lon="5.042">
        <ele>440.7</ele>
        <time>2016-05-10T11:19:29Z</time>
      </trkpt>
      <trkpt lat="47.69748" lon="5.04221">
        <ele>440.9</ele>
        <time>2016-05-10T11:19:46Z</time>
      </trkpt>
      <trkpt lat="47.69754" lon="5.04239">
        <ele>441</ele>
        <time>2016-05-10T11:19:56Z</time>
      </trkpt>
      <trkpt lat="47.69757" lon="5.04259">
        <ele>441.3</ele>
        <time>2016-05-10T11:20:18Z</time>
      </trkpt>
      <trkpt lat="47.69745" lon="5.04268">
        <ele>442.8</ele>
        <time>2016-05-10T11:21:03Z</time>
      </trkpt>
      <trkpt lat="47.69732" lon="5.04263">
        <ele>446.5</ele>
        <time>2016-05-10T11:21:35Z</time>
      </trkpt>
      <trkpt lat="47.69718" lon="5.04266">
        <ele>448.3</ele>
        <time>2016-05-10T11:21:51Z</time>
      </trkpt>
      <trkpt lat="47.69704" lon="5.04262">
        <ele>452.3</ele>
        <time>2016-05-10T11:22:33Z</time>
      </trkpt>
      <trkpt lat="47.69691" lon="5.04267">
        <ele>457.6</ele>
        <time>2016-05-10T11:23:12Z</time>
      </trkpt>
      <trkpt lat="47.69678" lon="5.04259">
        <ele>463.1</ele>
        <time>2016-05-10T11:23:53Z</time>
      </trkpt>
      <trkpt lat="47.69664" lon="5.04257">
        <ele>464.2</ele>
        <time>2016-05-10T11:24:07Z</time>
      </trkpt>
      <trkpt lat="47.6965" lon="5.04251">
        <ele>463.9</ele>
        <time>2016-05-10T11:24:26Z</time>
      </trkpt>
      <trkpt lat="47.69636" lon="5.04253">
        <ele>463.7</ele>
        <time>2016-05-10T11:24:42Z</time>
      </trkpt>
      <trkpt lat="47.69623" lon="5.0425">
        <ele>463.5</ele>
        <time>2016-05-10T11:24:57Z</time>
      </trkpt>
      <trkpt lat="47.69609" lon="5.04252">
        <ele>463.3</ele>
        <time>2016-05-10T11:25:12Z</time>
      </trkpt>
      <trkpt lat="47.69594" lon="5.04248">
        <ele>463</ele>
        <time>2016-05-10T11:25:30Z</time>
      </trkpt>
      <trkpt lat="47.69579" lon="5.04246">
        <ele>462.7</ele>
        <time>2016-05-10T11:25:47Z</time>
      </trkpt>
      <trkpt lat="47.69565" lon="5.04246">
        <ele>462.4</ele>
        <time>2016-05-10T11:26:10Z</time>
      </trkpt>
      <trkpt lat="47.69552" lon="5.04236">
        <ele>462</ele>
        <time>2016-05-10T11:26:40Z</time>
      </trkpt>
      <trkpt lat="47.69538" lon="5.04233">
        <ele>461.7</ele>
        <time>2016-05-10T11:26:56Z</time>
      </trkpt>
      <trkpt lat="47.69524" lon="5.04232">
        <ele>461.5</ele>
        <time>2016-05-10T11:27:11Z</time>
      </trkpt>
      <trkpt lat="47.69509" lon="5.04232">
        <ele>461.3</ele>
        <time>2016-05-10T11:27:26Z</time>
      </trkpt>
      <trkpt lat="47.69495" lon="5.0423">
        <ele>461.1</ele>
        <time>2016-05-10T11:27:40Z</time>
      </trkpt>
      <trkpt lat="47.69482" lon="5.04237">
        <ele>458.7</ele>
        <time>2016-05-10T11:28:11Z</time>
      </trkpt>
      <trkpt lat="47.69475" lon="5.04236">
        <ele>457.6</ele>
        <time>2016-05-10T11:28:25Z</time>
      </trkpt>
      <trkpt lat="47.69462" lon="5.04231">
        <ele>453.1</ele>
        <time>2016-05-10T11:28:53Z</time>
      </trkpt>
      <trkpt lat="47.69453" lon="5.04223">
        <ele>451.3</ele>
        <time>2016-05-10T11:29:05Z</time>
      </trkpt>
      <trkpt lat="47.69454" lon="5.04211">
        <ele>449.9</ele>
        <time>2016-05-10T11:29:15Z</time>
      </trkpt>
      <trkpt lat="47.6944" lon="5.04214">
        <ele>448.4</ele>
        <time>2016-05-10T11:29:28Z</time>
      </trkpt>
      <trkpt lat="47.69426" lon="5.0422">
        <ele>447</ele>
        <time>2016-05-10T11:29:40Z</time>
      </trkpt>
      <trkpt lat="47.69413" lon="5.04214">
        <ele>444.3</ele>
        <time>2016-05-10T11:29:59Z</time>
      </trkpt>
      <trkpt lat="47.69399" lon="5.04208">
        <ele>442.7</ele>
        <time>2016-05-10T11:30:15Z</time>
      </trkpt>
      <trkpt lat="47.69386" lon="5.04213">
        <ele>441.3</ele>
        <time>2016-05-10T11:30:29Z</time>
      </trkpt>
      <trkpt lat="47.69372" lon="5.0421">
        <ele>441.2</ele>
        <time>2016-05-10T11:30:45Z</time>
      </trkpt>
      <trkpt lat="47.69358" lon="5.04211">
        <ele>441.5</ele>
        <time>2016-05-10T11:31:02Z</time>
      </trkpt>
      <trkpt lat="47.69354" lon="5.04191">
        <ele>441.8</ele>
        <time>2016-05-10T11:31:25Z</time>
      </trkpt>
      <trkpt lat="47.69348" lon="5.04184">
        <ele>441.9</ele>
        <time>2016-05-10T11:31:35Z</time>
      </trkpt>
      <trkpt lat="47.69348" lon="5.04162">
        <ele>442.3</ele>
        <time>2016-05-10T11:32:01Z</time>
      </trkpt>
      <trkpt lat="47.69344" lon="5.04141">
        <ele>442.6</ele>
        <time>2016-05-10T11:32:18Z</time>
      </trkpt>
      <trkpt lat="47.69343" lon="5.0412">
        <ele>442.8</ele>
        <time>2016-05-10T11:32:31Z</time>
      </trkpt>
      <trkpt lat="47.69341" lon="5.041">
        <ele>443</ele>
        <time>2016-05-10T11:32:46Z</time>
      </trkpt>
      <trkpt lat="47.69333" lon="5.04081">
        <ele>443.2</ele>
        <time>2016-05-10T11:33:02Z</time>
      </trkpt>
      <trkpt lat="47.69328" lon="5.04062">
        <ele>443.4</ele>
        <time>2016-05-10T11:33:17Z</time>
      </trkpt>
      <trkpt lat="47.69323" lon="5.04042">
        <ele>443.7</ele>
        <time>2016-05-10T11:33:33Z</time>
      </trkpt>
      <trkpt lat="47.69319" lon="5.04023">
        <ele>443.9</ele>
        <time>2016-05-10T11:33:49Z</time>
      </trkpt>
      <trkpt lat="47.69319" lon="5.04003">
        <ele>444.1</ele>
        <time>2016-05-10T11:34:06Z</time>
      </trkpt>
      <trkpt lat="47.69314" lon="5.03984">
        <ele>444.7</ele>
        <time>2016-05-10T11:34:23Z</time>
      </trkpt>
      <trkpt lat="47.69306" lon="5.03968">
        <ele>445.3</ele>
        <time>2016-05-10T11:34:36Z</time>
      </trkpt>
      <trkpt lat="47.69304" lon="5.03948">
        <ele>446</ele>
        <time>2016-05-10T11:34:51Z</time>
      </trkpt>
      <trkpt lat="47.69298" lon="5.03928">
        <ele>446.7</ele>
        <time>2016-05-10T11:35:06Z</time>
      </trkpt>
      <trkpt lat="47.69292" lon="5.03909">
        <ele>447.4</ele>
        <time>2016-05-10T11:35:21Z</time>
      </trkpt>
      <trkpt lat="47.69292" lon="5.03888">
        <ele>448.3</ele>
        <time>2016-05-10T11:35:37Z</time>
      </trkpt>
      <trkpt lat="47.69286" lon="5.0387">
        <ele>449.3</ele>
        <time>2016-05-10T11:35:55Z</time>
      </trkpt>
      <trkpt lat="47.69282" lon="5.03851">
        <ele>450</ele>
        <time>2016-05-10T11:36:09Z</time>
      </trkpt>
      <trkpt lat="47.69281" lon="5.0383">
        <ele>450.6</ele>
        <time>2016-05-10T11:36:26Z</time>
      </trkpt>
      <trkpt lat="47.69277" lon="5.0381">
        <ele>450.1</ele>
        <time>2016-05-10T11:36:45Z</time>
      </trkpt>
      <trkpt lat="47.69273" lon="5.0379">
        <ele>449.8</ele>
        <time>2016-05-10T11:36:58Z</time>
      </trkpt>
      <trkpt lat="47.69268" lon="5.03771">
        <ele>449.5</ele>
        <time>2016-05-10T11:37:12Z</time>
      </trkpt>
      <trkpt lat="47.69261" lon="5.03753">
        <ele>449.1</ele>
        <time>2016-05-10T11:37:27Z</time>
      </trkpt>
      <trkpt lat="47.69251" lon="5.0374">
        <ele>448.7</ele>
        <time>2016-05-10T11:37:47Z</time>
      </trkpt>
      <trkpt lat="47.69239" lon="5.03736">
        <ele>448.2</ele>
        <time>2016-05-10T11:38:06Z</time>
      </trkpt>
      <trkpt lat="47.69226" lon="5.03743">
        <ele>447.6</ele>
        <time>2016-05-10T11:38:32Z</time>
      </trkpt>
      <trkpt lat="47.69211" lon="5.03744">
        <ele>446.7</ele>
        <time>2016-05-10T11:38:50Z</time>
      </trkpt>
      <trkpt lat="47.69197" lon="5.03747">
        <ele>445.1</ele>
        <time>2016-05-10T11:39:03Z</time>
      </trkpt>
      <trkpt lat="47.69183" lon="5.03745">
        <ele>443.5</ele>
        <time>2016-05-10T11:39:17Z</time>
      </trkpt>
      <trkpt lat="47.69169" lon="5.03748">
        <ele>442.1</ele>
        <time>2016-05-10T11:39:30Z</time>
      </trkpt>
      <trkpt lat="47.69155" lon="5.03749">
        <ele>440.7</ele>
        <time>2016-05-10T11:39:46Z</time>
      </trkpt>
      <trkpt lat="47.69141" lon="5.03753">
        <ele>440</ele>
        <time>2016-05-10T11:39:58Z</time>
      </trkpt>
      <trkpt lat="47.69123" lon="5.0375">
        <ele>438.7</ele>
        <time>2016-05-10T11:40:19Z</time>
      </trkpt>
      <trkpt lat="47.6911" lon="5.03755">
        <ele>437.4</ele>
        <time>2016-05-10T11:40:37Z</time>
      </trkpt>
      <trkpt lat="47.69095" lon="5.03758">
        <ele>435.7</ele>
        <time>2016-05-10T11:40:54Z</time>
      </trkpt>
      <trkpt lat="47.69082" lon="5.0375">
        <ele>434.2</ele>
        <time>2016-05-10T11:41:11Z</time>
      </trkpt>
      <trkpt lat="47.69068" lon="5.0375">
        <ele>434.4</ele>
        <time>2016-05-10T11:41:24Z</time>
      </trkpt>
      <trkpt lat="47.69054" lon="5.03753">
        <ele>434.7</ele>
        <time>2016-05-10T11:41:36Z</time>
      </trkpt>
      <trkpt lat="47.6904" lon="5.0375">
        <ele>435</ele>
        <time>2016-05-10T11:41:55Z</time>
      </trkpt>
      <trkpt lat="47.69025" lon="5.0375">
        <ele>435.4</ele>
        <time>2016-05-10T11:42:12Z</time>
      </trkpt>
      <trkpt lat="47.69011" lon="5.03751">
        <ele>435.8</ele>
        <time>2016-05-10T11:42:31Z</time>
      </trkpt>
      <trkpt lat="47.68997" lon="5.03751">
        <ele>436</ele>
        <time>2016-05-10T11:42:45Z</time>
      </trkpt>
      <trkpt lat="47.68983" lon="5.03754">
        <ele>436.3</ele>
        <time>2016-05-10T11:42:58Z</time>
      </trkpt>
      <trkpt lat="47.68968" lon="5.03752">
        <ele>436.6</ele>
        <time>2016-05-10T11:43:14Z</time>
      </trkpt>
      <trkpt lat="47.68953" lon="5.03757">
        <ele>436.9</ele>
        <time>2016-05-10T11:43:29Z</time>
      </trkpt>
      <trkpt lat="47.68939" lon="5.03756">
        <ele>437.2</ele>
        <time>2016-05-10T11:43:45Z</time>
      </trkpt>
      <trkpt lat="47.68925" lon="5.03751">
        <ele>437.3</ele>
        <time>2016-05-10T11:44:00Z</time>
      </trkpt>
      <trkpt lat="47.68911" lon="5.03755">
        <ele>437.1</ele>
        <time>2016-05-10T11:44:21Z</time>
      </trkpt>
      <trkpt lat="47.68897" lon="5.03754">
        <ele>436.9</ele>
        <time>2016-05-10T11:44:35Z</time>
      </trkpt>
      <trkpt lat="47.68884" lon="5.03756">
        <ele>436.8</ele>
        <time>2016-05-10T11:44:47Z</time>
      </trkpt>
      <trkpt lat="47.6887" lon="5.03755">
        <ele>436.6</ele>
        <time>2016-05-10T11:45:02Z</time>
      </trkpt>
      <trkpt lat="47.68856" lon="5.03754">
        <ele>436.4</ele>
        <time>2016-05-10T11:45:19Z</time>
      </trkpt>
      <trkpt lat="47.68842" lon="5.0376">
        <ele>436.2</ele>
        <time>2016-05-10T11:45:32Z</time>
      </trkpt>
      <trkpt lat="47.68828" lon="5.03758">
        <ele>436</ele>
        <time>2016-05-10T11:45:47Z</time>
      </trkpt>
      <trkpt lat="47.68814" lon="5.03755">
        <ele>435.8</ele>
        <time>2016-05-10T11:46:01Z</time>
      </trkpt>
      <trkpt lat="47.68795" lon="5.03754">
        <ele>435.7</ele>
        <time>2016-05-10T11:46:15Z</time>
      </trkpt>
      <trkpt lat="47.68782" lon="5.03755">
        <ele>435.4</ele>
        <time>2016-05-10T11:46:33Z</time>
      </trkpt>
      <trkpt lat="47.68775" lon="5.03754">
        <ele>435.3</ele>
        <time>2016-05-10T11:46:45Z</time>
      </trkpt>
      <trkpt lat="47.68777" lon="5.03734">
        <ele>435.1</ele>
        <time>2016-05-10T11:47:03Z</time>
      </trkpt>
      <trkpt lat="47.68776" lon="5.03713">
        <ele>434.9</ele>
        <time>2016-05-10T11:47:18Z</time>
      </trkpt>
      <trkpt lat="47.68774" lon="5.03693">
        <ele>434.7</ele>
        <time>2016-05-10T11:47:33Z</time>
      </trkpt>
      <trkpt lat="47.68761" lon="5.03698">
        <ele>434.5</ele>
        <time>2016-05-10T11:47:50Z</time>
      </trkpt>
      <trkpt lat="47.68748" lon="5.03708">
        <ele>434.3</ele>
        <time>2016-05-10T11:48:03Z</time>
      </trkpt>
      <trkpt lat="47.68736" lon="5.03717">
        <ele>433.9</ele>
        <time>2016-05-10T11:48:18Z</time>
      </trkpt>
      <trkpt lat="47.68722" lon="5.03722">
        <ele>433.5</ele>
        <time>2016-05-10T11:48:33Z</time>
      </trkpt>
      <trkpt lat="47.68708" lon="5.03728">
        <ele>433.1</ele>
        <time>2016-05-10T11:48:48Z</time>
      </trkpt>
      <trkpt lat="47.68694" lon="5.03734">
        <ele>432.7</ele>
        <time>2016-05-10T11:49:01Z</time>
      </trkpt>
      <trkpt lat="47.68681" lon="5.03741">
        <ele>432.4</ele>
        <time>2016-05-10T11:49:12Z</time>
      </trkpt>
      <trkpt lat="47.68668" lon="5.03744">
        <ele>432</ele>
        <time>2016-05-10T11:49:27Z</time>
      </trkpt>
      <trkpt lat="47.68654" lon="5.03747">
        <ele>431.5</ele>
        <time>2016-05-10T11:49:44Z</time>
      </trkpt>
      <trkpt lat="47.6864" lon="5.03747">
        <ele>431</ele>
        <time>2016-05-10T11:50:01Z</time>
      </trkpt>
      <trkpt lat="47.68627" lon="5.03754">
        <ele>430.6</ele>
        <time>2016-05-10T11:50:15Z</time>
      </trkpt>
      <trkpt lat="47.68614" lon="5.03763">
        <ele>430.4</ele>
        <time>2016-05-10T11:50:29Z</time>
      </trkpt>
      <trkpt lat="47.68601" lon="5.0377">
        <ele>430.2</ele>
        <time>2016-05-10T11:50:42Z</time>
      </trkpt>
      <trkpt lat="47.68588" lon="5.0378">
        <ele>429.9</ele>
        <time>2016-05-10T11:50:58Z</time>
      </trkpt>
      <trkpt lat="47.68575" lon="5.03788">
        <ele>429.7</ele>
        <time>2016-05-10T11:51:09Z</time>
      </trkpt>
      <trkpt lat="47.68566" lon="5.03805">
        <ele>429.4</ele>
        <time>2016-05-10T11:51:22Z</time>
      </trkpt>
      <trkpt lat="47.68553" lon="5.03814">
        <ele>429.1</ele>
        <time>2016-05-10T11:51:39Z</time>
      </trkpt>
      <trkpt lat="47.68544" lon="5.03831">
        <ele>428.8</ele>
        <time>2016-05-10T11:51:55Z</time>
      </trkpt>
      <trkpt lat="47.68535" lon="5.03847">
        <ele>428.6</ele>
        <time>2016-05-10T11:52:11Z</time>
      </trkpt>
      <trkpt lat="47.68528" lon="5.03865">
        <ele>428.3</ele>
        <time>2016-05-10T11:52:25Z</time>
      </trkpt>
      <trkpt lat="47.68518" lon="5.03879">
        <ele>428.1</ele>
        <time>2016-05-10T11:52:37Z</time>
      </trkpt>
      <trkpt lat="47.68504" lon="5.03881">
        <ele>427.7</ele>
        <time>2016-05-10T11:52:58Z</time>
      </trkpt>
      <trkpt lat="47.6849" lon="5.03875">
        <ele>427</ele>
        <time>2016-05-10T11:53:14Z</time>
      </trkpt>
      <trkpt lat="47.68477" lon="5.0388">
        <ele>425.9</ele>
        <time>2016-05-10T11:53:31Z</time>
      </trkpt>
      <trkpt lat="47.68464" lon="5.0389">
        <ele>425</ele>
        <time>2016-05-10T11:53:45Z</time>
      </trkpt>
      <trkpt lat="47.68452" lon="5.03902">
        <ele>423.7</ele>
        <time>2016-05-10T11:54:03Z</time>
      </trkpt>
      <trkpt lat="47.68444" lon="5.03919">
        <ele>422.7</ele>
        <time>2016-05-10T11:54:16Z</time>
      </trkpt>
      <trkpt lat="47.68435" lon="5.03935">
        <ele>421.6</ele>
        <time>2016-05-10T11:54:31Z</time>
      </trkpt>
      <trkpt lat="47.68421" lon="5.03937">
        <ele>418.3</ele>
        <time>2016-05-10T11:55:00Z</time>
      </trkpt>
      <trkpt lat="47.68408" lon="5.03944">
        <ele>415.3</ele>
        <time>2016-05-10T11:55:19Z</time>
      </trkpt>
      <trkpt lat="47.68394" lon="5.0395">
        <ele>413.4</ele>
        <time>2016-05-10T11:55:37Z</time>
      </trkpt>
      <trkpt lat="47.6838" lon="5.03953">
        <ele>412.1</ele>
        <time>2016-05-10T11:55:53Z</time>
      </trkpt>
      <trkpt lat="47.68366" lon="5.03946">
        <ele>411.1</ele>
        <time>2016-05-10T11:56:10Z</time>
      </trkpt>
      <trkpt lat="47.68352" lon="5.0394">
        <ele>410.2</ele>
        <time>2016-05-10T11:56:26Z</time>
      </trkpt>
      <trkpt lat="47.68339" lon="5.0393">
        <ele>409.5</ele>
        <time>2016-05-10T11:56:39Z</time>
      </trkpt>
      <trkpt lat="47.68327" lon="5.03918">
        <ele>408.3</ele>
        <time>2016-05-10T11:57:01Z</time>
      </trkpt>
      <trkpt lat="47.68317" lon="5.03904">
        <ele>407.5</ele>
        <time>2016-05-10T11:57:15Z</time>
      </trkpt>
      <trkpt lat="47.68305" lon="5.03892">
        <ele>406.6</ele>
        <time>2016-05-10T11:57:30Z</time>
      </trkpt>
      <trkpt lat="47.683" lon="5.03872">
        <ele>405.9</ele>
        <time>2016-05-10T11:57:43Z</time>
      </trkpt>
      <trkpt lat="47.68293" lon="5.03853">
        <ele>405.2</ele>
        <time>2016-05-10T11:57:58Z</time>
      </trkpt>
      <trkpt lat="47.68287" lon="5.03836">
        <ele>405.6</ele>
        <time>2016-05-10T11:58:20Z</time>
      </trkpt>
      <trkpt lat="47.68287" lon="5.03815">
        <ele>406</ele>
        <time>2016-05-10T11:58:38Z</time>
      </trkpt>
      <trkpt lat="47.68286" lon="5.03794">
        <ele>406.3</ele>
        <time>2016-05-10T11:58:54Z</time>
      </trkpt>
      <trkpt lat="47.68282" lon="5.03773">
        <ele>406.7</ele>
        <time>2016-05-10T11:59:12Z</time>
      </trkpt>
      <trkpt lat="47.68279" lon="5.03754">
        <ele>406.9</ele>
        <time>2016-05-10T11:59:24Z</time>
      </trkpt>
      <trkpt lat="47.68277" lon="5.03733">
        <ele>407.3</ele>
        <time>2016-05-10T11:59:41Z</time>
      </trkpt>
      <trkpt lat="47.68282" lon="5.03713">
        <ele>407.5</ele>
        <time>2016-05-10T11:59:53Z</time>
      </trkpt>
      <trkpt lat="47.6828" lon="5.03692">
        <ele>407.9</ele>
        <time>2016-05-10T12:00:10Z</time>
      </trkpt>
      <trkpt lat="47.68285" lon="5.03674">
        <ele>408.2</ele>
        <time>2016-05-10T12:00:25Z</time>
      </trkpt>
      <trkpt lat="47.6829" lon="5.03655">
        <ele>408.6</ele>
        <time>2016-05-10T12:00:45Z</time>
      </trkpt>
      <trkpt lat="47.68296" lon="5.03636">
        <ele>409.3</ele>
        <time>2016-05-10T12:01:01Z</time>
      </trkpt>
      <trkpt lat="47.68302" lon="5.03617">
        <ele>410.2</ele>
        <time>2016-05-10T12:01:17Z</time>
      </trkpt>
      <trkpt lat="47.68311" lon="5.036">
        <ele>411.2</ele>
        <time>2016-05-10T12:01:33Z</time>
      </trkpt>
      <trkpt lat="47.68321" lon="5.03585">
        <ele>412.1</ele>
        <time>2016-05-10T12:01:47Z</time>
      </trkpt>
      <trkpt lat="47.6833" lon="5.03568">
        <ele>413.3</ele>
        <time>2016-05-10T12:02:03Z</time>
      </trkpt>
      <trkpt lat="47.6834" lon="5.03554">
        <ele>414.4</ele>
        <time>2016-05-10T12:02:18Z</time>
      </trkpt>
      <trkpt lat="47.68349" lon="5.03538">
        <ele>415.4</ele>
        <time>2016-05-10T12:02:33Z</time>
      </trkpt>
      <trkpt lat="47.6836" lon="5.03525">
        <ele>416.8</ele>
        <time>2016-05-10T12:02:47Z</time>
      </trkpt>
      <trkpt lat="47.68365" lon="5.03505">
        <ele>418.2</ele>
        <time>2016-05-10T12:03:01Z</time>
      </trkpt>
      <trkpt lat="47.68368" lon="5.03484">
        <ele>419.9</ele>
        <time>2016-05-10T12:03:17Z</time>
      </trkpt>
      <trkpt lat="47.6837" lon="5.03469">
        <ele>421.3</ele>
        <time>2016-05-10T12:03:31Z</time>
      </trkpt>
      <trkpt lat="47.68356" lon="5.03464">
        <ele>423</ele>
        <time>2016-05-10T12:03:48Z</time>
      </trkpt>
      <trkpt lat="47.68343" lon="5.03467">
        <ele>424.9</ele>
        <time>2016-05-10T12:04:06Z</time>
      </trkpt>
      <trkpt lat="47.68328" lon="5.0347">
        <ele>426.3</ele>
        <time>2016-05-10T12:04:24Z</time>
      </trkpt>
      <trkpt lat="47.68315" lon="5.03474">
        <ele>427.8</ele>
        <time>2016-05-10T12:04:47Z</time>
      </trkpt>
      <trkpt lat="47.68303" lon="5.03483">
        <ele>427.9</ele>
        <time>2016-05-10T12:04:58Z</time>
      </trkpt>
      <trkpt lat="47.68289" lon="5.0349">
        <ele>426.6</ele>
        <time>2016-05-10T12:05:12Z</time>
      </trkpt>
      <trkpt lat="47.68279" lon="5.03491">
        <ele>417.7</ele>
        <time>2016-05-10T12:06:03Z</time>
      </trkpt>
      <trkpt lat="47.68275" lon="5.0347">
        <ele>418.5</ele>
        <time>2016-05-10T12:06:24Z</time>
      </trkpt>
      <trkpt lat="47.68272" lon="5.0349">
        <ele>420.1</ele>
        <time>2016-05-10T12:07:28Z</time>
      </trkpt>
      <trkpt lat="47.68265" lon="5.03493">
        <ele>420.2</ele>
        <time>2016-05-10T12:07:39Z</time>
      </trkpt>
      <trkpt lat="47.68258" lon="5.03479">
        <ele>420.3</ele>
        <time>2016-05-10T12:07:56Z</time>
      </trkpt>
      <trkpt lat="47.6825" lon="5.03463">
        <ele>420.3</ele>
        <time>2016-05-10T12:08:13Z</time>
      </trkpt>
      <trkpt lat="47.68259" lon="5.03463">
        <ele>420.9</ele>
        <time>2016-05-10T12:10:13Z</time>
      </trkpt>
      <trkpt lat="47.68257" lon="5.03461">
        <ele>421.1</ele>
        <time>2016-05-10T12:10:33Z</time>
      </trkpt>
      <trkpt lat="47.68263" lon="5.03478">
        <ele>421.1</ele>
        <time>2016-05-10T12:10:44Z</time>
      </trkpt>
      <trkpt lat="47.68261" lon="5.03477">
        <ele>421.2</ele>
        <time>2016-05-10T12:10:55Z</time>
      </trkpt>
      <trkpt lat="47.68262" lon="5.03454">
        <ele>421.2</ele>
        <time>2016-05-10T12:11:08Z</time>
      </trkpt>
      <trkpt lat="47.6826" lon="5.03448">
        <ele>421.3</ele>
        <time>2016-05-10T12:11:21Z</time>
      </trkpt>
      <trkpt lat="47.68253" lon="5.03464">
        <ele>421.3</ele>
        <time>2016-05-10T12:11:25Z</time>
      </trkpt>
      <trkpt lat="47.68256" lon="5.03466">
        <ele>421.3</ele>
        <time>2016-05-10T12:11:43Z</time>
      </trkpt>
    </trkseg>
  </trk>
</gpx>